<?xml version="1.0" encoding="UTF-8" standalone="no" ?>
<gpx xmlns="http://www.topografix.com/GPX/1/1" xmlns:xsi="http://www.w3.org/2001/XMLSchema-instance" xsi:schemaLocation="http://www.topografix.com/GPX/1/1 http://www.topografix.com/GPX/1/1/gpx.xsd" version="1.1" creator="VisuGPX - https://www.visugpx.com">
  <metadata>
    <name>2017-12-11-46-lacapelle</name>
    <desc><![CDATA[randonnée de 10,5km pour 260m de dénivelé positif. Circuit sur les hauts de Cahors ]]></desc>
  </metadata>
  <trk>
    <name><![CDATA[Tracé 11 déc. 2017 14:03:12]]></name>
    <trkseg>
      <trkpt lat="44.44289" lon="1.41237">
        <ele>279.90587580683</ele>
        <time>2017-12-11T13:03:12Z</time>
      </trkpt>
      <trkpt lat="44.44289" lon="1.41242">
        <ele>294.16660202357</ele>
        <time>2017-12-11T13:03:28Z</time>
      </trkpt>
      <trkpt lat="44.44299" lon="1.41259">
        <ele>294.66644541566</ele>
        <time>2017-12-11T13:03:33Z</time>
      </trkpt>
      <trkpt lat="44.44307" lon="1.41269">
        <ele>295.45295984087</ele>
        <time>2017-12-11T13:03:38Z</time>
      </trkpt>
      <trkpt lat="44.44313" lon="1.41275">
        <ele>290.659300826</ele>
        <time>2017-12-11T13:03:43Z</time>
      </trkpt>
      <trkpt lat="44.44316" lon="1.41279">
        <ele>286.74832847179</ele>
        <time>2017-12-11T13:03:46Z</time>
      </trkpt>
      <trkpt lat="44.44323" lon="1.41286">
        <ele>281.90842581622</ele>
        <time>2017-12-11T13:03:57Z</time>
      </trkpt>
      <trkpt lat="44.44328" lon="1.41288">
        <ele>281.53933095511</ele>
        <time>2017-12-11T13:04:06Z</time>
      </trkpt>
      <trkpt lat="44.44336" lon="1.41289">
        <ele>281.34360435153</ele>
        <time>2017-12-11T13:04:15Z</time>
      </trkpt>
      <trkpt lat="44.44343" lon="1.41295">
        <ele>284.33347651667</ele>
        <time>2017-12-11T13:04:34Z</time>
      </trkpt>
      <trkpt lat="44.4435" lon="1.41301">
        <ele>284.35698735375</ele>
        <time>2017-12-11T13:04:43Z</time>
      </trkpt>
      <trkpt lat="44.44358" lon="1.41305">
        <ele>283.99384108633</ele>
        <time>2017-12-11T13:04:51Z</time>
      </trkpt>
      <trkpt lat="44.44365" lon="1.41308">
        <ele>283.49970564437</ele>
        <time>2017-12-11T13:04:56Z</time>
      </trkpt>
      <trkpt lat="44.44375" lon="1.41307">
        <ele>283.06774249457</ele>
        <time>2017-12-11T13:05:01Z</time>
      </trkpt>
      <trkpt lat="44.44384" lon="1.41308">
        <ele>283.23230635234</ele>
        <time>2017-12-11T13:05:08Z</time>
      </trkpt>
      <trkpt lat="44.44392" lon="1.41306">
        <ele>283.57088399083</ele>
        <time>2017-12-11T13:05:15Z</time>
      </trkpt>
      <trkpt lat="44.444" lon="1.41308">
        <ele>283.64741594632</ele>
        <time>2017-12-11T13:05:20Z</time>
      </trkpt>
      <trkpt lat="44.44408" lon="1.41305">
        <ele>283.09173147753</ele>
        <time>2017-12-11T13:05:29Z</time>
      </trkpt>
      <trkpt lat="44.44417" lon="1.41304">
        <ele>281.66015432561</ele>
        <time>2017-12-11T13:05:38Z</time>
      </trkpt>
      <trkpt lat="44.44425" lon="1.41302">
        <ele>281.31130366499</ele>
        <time>2017-12-11T13:05:44Z</time>
      </trkpt>
      <trkpt lat="44.44434" lon="1.41298">
        <ele>280.88100185785</ele>
        <time>2017-12-11T13:05:51Z</time>
      </trkpt>
      <trkpt lat="44.44442" lon="1.41295">
        <ele>279.81154348914</ele>
        <time>2017-12-11T13:05:59Z</time>
      </trkpt>
      <trkpt lat="44.44451" lon="1.41294">
        <ele>279.68895971369</ele>
        <time>2017-12-11T13:06:06Z</time>
      </trkpt>
      <trkpt lat="44.44457" lon="1.41286">
        <ele>279.53755406069</ele>
        <time>2017-12-11T13:06:12Z</time>
      </trkpt>
      <trkpt lat="44.4446" lon="1.41277">
        <ele>279.32836272926</ele>
        <time>2017-12-11T13:06:17Z</time>
      </trkpt>
      <trkpt lat="44.44461" lon="1.41266">
        <ele>278.98251793916</ele>
        <time>2017-12-11T13:06:23Z</time>
      </trkpt>
      <trkpt lat="44.4446" lon="1.41254">
        <ele>278.92315740541</ele>
        <time>2017-12-11T13:06:29Z</time>
      </trkpt>
      <trkpt lat="44.4446" lon="1.41243">
        <ele>278.73926852904</ele>
        <time>2017-12-11T13:06:35Z</time>
      </trkpt>
      <trkpt lat="44.44462" lon="1.41231">
        <ele>278.49346759108</ele>
        <time>2017-12-11T13:06:43Z</time>
      </trkpt>
      <trkpt lat="44.44462" lon="1.4122">
        <ele>278.42700927385</ele>
        <time>2017-12-11T13:06:49Z</time>
      </trkpt>
      <trkpt lat="44.44461" lon="1.41209">
        <ele>278.92801607048</ele>
        <time>2017-12-11T13:06:56Z</time>
      </trkpt>
      <trkpt lat="44.44458" lon="1.41195">
        <ele>278.99155467174</ele>
        <time>2017-12-11T13:07:01Z</time>
      </trkpt>
      <trkpt lat="44.44458" lon="1.41183">
        <ele>279.10968678572</ele>
        <time>2017-12-11T13:07:09Z</time>
      </trkpt>
      <trkpt lat="44.44458" lon="1.41172">
        <ele>279.35448808986</ele>
        <time>2017-12-11T13:07:16Z</time>
      </trkpt>
      <trkpt lat="44.44457" lon="1.4116">
        <ele>279.76108069864</ele>
        <time>2017-12-11T13:07:25Z</time>
      </trkpt>
      <trkpt lat="44.44456" lon="1.41146">
        <ele>279.98151133828</ele>
        <time>2017-12-11T13:07:30Z</time>
      </trkpt>
      <trkpt lat="44.44458" lon="1.41135">
        <ele>280.42618141135</ele>
        <time>2017-12-11T13:07:37Z</time>
      </trkpt>
      <trkpt lat="44.44457" lon="1.41122">
        <ele>280.05913448289</ele>
        <time>2017-12-11T13:07:43Z</time>
      </trkpt>
      <trkpt lat="44.44456" lon="1.41111">
        <ele>280.3218233464</ele>
        <time>2017-12-11T13:07:50Z</time>
      </trkpt>
      <trkpt lat="44.44458" lon="1.41099">
        <ele>280.03126960426</ele>
        <time>2017-12-11T13:07:56Z</time>
      </trkpt>
      <trkpt lat="44.44458" lon="1.41087">
        <ele>279.17845743229</ele>
        <time>2017-12-11T13:08:06Z</time>
      </trkpt>
      <trkpt lat="44.44461" lon="1.41078">
        <ele>279.24421234549</ele>
        <time>2017-12-11T13:08:15Z</time>
      </trkpt>
      <trkpt lat="44.44461" lon="1.41065">
        <ele>279.25999339707</ele>
        <time>2017-12-11T13:08:19Z</time>
      </trkpt>
      <trkpt lat="44.4446" lon="1.41055">
        <ele>279.59915178748</ele>
        <time>2017-12-11T13:08:24Z</time>
      </trkpt>
      <trkpt lat="44.44459" lon="1.41043">
        <ele>279.50095722164</ele>
        <time>2017-12-11T13:08:29Z</time>
      </trkpt>
      <trkpt lat="44.44459" lon="1.41031">
        <ele>279.24146332474</ele>
        <time>2017-12-11T13:08:34Z</time>
      </trkpt>
      <trkpt lat="44.44459" lon="1.41018">
        <ele>279.27408742714</ele>
        <time>2017-12-11T13:08:43Z</time>
      </trkpt>
      <trkpt lat="44.44461" lon="1.41007">
        <ele>279.2047985229</ele>
        <time>2017-12-11T13:08:51Z</time>
      </trkpt>
      <trkpt lat="44.44466" lon="1.40998">
        <ele>279.52489134077</ele>
        <time>2017-12-11T13:08:58Z</time>
      </trkpt>
      <trkpt lat="44.44466" lon="1.40986">
        <ele>279.52706472626</ele>
        <time>2017-12-11T13:09:03Z</time>
      </trkpt>
      <trkpt lat="44.44465" lon="1.40974">
        <ele>279.57717725912</ele>
        <time>2017-12-11T13:09:08Z</time>
      </trkpt>
      <trkpt lat="44.44465" lon="1.40962">
        <ele>278.71539152746</ele>
        <time>2017-12-11T13:09:16Z</time>
      </trkpt>
      <trkpt lat="44.44465" lon="1.4095">
        <ele>278.46578666195</ele>
        <time>2017-12-11T13:09:21Z</time>
      </trkpt>
      <trkpt lat="44.44464" lon="1.40939">
        <ele>278.14387136583</ele>
        <time>2017-12-11T13:09:28Z</time>
      </trkpt>
      <trkpt lat="44.44464" lon="1.40927">
        <ele>278.01551378592</ele>
        <time>2017-12-11T13:09:33Z</time>
      </trkpt>
      <trkpt lat="44.44465" lon="1.40918">
        <ele>277.49292637543</ele>
        <time>2017-12-11T13:09:37Z</time>
      </trkpt>
      <trkpt lat="44.44468" lon="1.40907">
        <ele>277.48746192875</ele>
        <time>2017-12-11T13:09:43Z</time>
      </trkpt>
      <trkpt lat="44.4447" lon="1.40895">
        <ele>277.98157055219</ele>
        <time>2017-12-11T13:09:49Z</time>
      </trkpt>
      <trkpt lat="44.44472" lon="1.40884">
        <ele>279.43492223714</ele>
        <time>2017-12-11T13:09:58Z</time>
      </trkpt>
      <trkpt lat="44.44473" lon="1.40872">
        <ele>280.0621703051</ele>
        <time>2017-12-11T13:10:04Z</time>
      </trkpt>
      <trkpt lat="44.44472" lon="1.4086">
        <ele>279.88806385963</ele>
        <time>2017-12-11T13:10:09Z</time>
      </trkpt>
      <trkpt lat="44.44472" lon="1.40847">
        <ele>280.06059186837</ele>
        <time>2017-12-11T13:10:15Z</time>
      </trkpt>
      <trkpt lat="44.44473" lon="1.40837">
        <ele>280.06820885902</ele>
        <time>2017-12-11T13:10:21Z</time>
      </trkpt>
      <trkpt lat="44.44476" lon="1.40827">
        <ele>280.10092825742</ele>
        <time>2017-12-11T13:10:26Z</time>
      </trkpt>
      <trkpt lat="44.4448" lon="1.40817">
        <ele>282.12828156</ele>
        <time>2017-12-11T13:11:43Z</time>
      </trkpt>
      <trkpt lat="44.44485" lon="1.40807">
        <ele>281.6765320084</ele>
        <time>2017-12-11T13:11:52Z</time>
      </trkpt>
      <trkpt lat="44.44491" lon="1.40798">
        <ele>281.77931880224</ele>
        <time>2017-12-11T13:11:59Z</time>
      </trkpt>
      <trkpt lat="44.44495" lon="1.40787">
        <ele>281.25503992883</ele>
        <time>2017-12-11T13:12:09Z</time>
      </trkpt>
      <trkpt lat="44.44499" lon="1.40778">
        <ele>281.21758850043</ele>
        <time>2017-12-11T13:12:15Z</time>
      </trkpt>
      <trkpt lat="44.44505" lon="1.40769">
        <ele>281.11733539855</ele>
        <time>2017-12-11T13:12:21Z</time>
      </trkpt>
      <trkpt lat="44.4451" lon="1.40759">
        <ele>281.40398446607</ele>
        <time>2017-12-11T13:12:28Z</time>
      </trkpt>
      <trkpt lat="44.44516" lon="1.4075">
        <ele>281.96067535313</ele>
        <time>2017-12-11T13:12:34Z</time>
      </trkpt>
      <trkpt lat="44.44522" lon="1.40744">
        <ele>282.2926937348</ele>
        <time>2017-12-11T13:12:40Z</time>
      </trkpt>
      <trkpt lat="44.44528" lon="1.40735">
        <ele>282.69762298427</ele>
        <time>2017-12-11T13:12:47Z</time>
      </trkpt>
      <trkpt lat="44.44534" lon="1.40727">
        <ele>282.11084888149</ele>
        <time>2017-12-11T13:12:55Z</time>
      </trkpt>
      <trkpt lat="44.44539" lon="1.40719">
        <ele>281.52175837565</ele>
        <time>2017-12-11T13:13:00Z</time>
      </trkpt>
      <trkpt lat="44.44547" lon="1.40711">
        <ele>281.3791639482</ele>
        <time>2017-12-11T13:13:07Z</time>
      </trkpt>
      <trkpt lat="44.44552" lon="1.40702">
        <ele>280.71867023784</ele>
        <time>2017-12-11T13:13:13Z</time>
      </trkpt>
      <trkpt lat="44.44556" lon="1.40691">
        <ele>279.95491293207</ele>
        <time>2017-12-11T13:13:19Z</time>
      </trkpt>
      <trkpt lat="44.4456" lon="1.40681">
        <ele>279.15371220296</ele>
        <time>2017-12-11T13:13:26Z</time>
      </trkpt>
      <trkpt lat="44.44566" lon="1.40672">
        <ele>278.37742368552</ele>
        <time>2017-12-11T13:13:33Z</time>
      </trkpt>
      <trkpt lat="44.44572" lon="1.40662">
        <ele>277.52033690426</ele>
        <time>2017-12-11T13:13:41Z</time>
      </trkpt>
      <trkpt lat="44.44576" lon="1.40652">
        <ele>276.88947759989</ele>
        <time>2017-12-11T13:13:47Z</time>
      </trkpt>
      <trkpt lat="44.4458" lon="1.40642">
        <ele>276.36583162938</ele>
        <time>2017-12-11T13:13:53Z</time>
      </trkpt>
      <trkpt lat="44.44584" lon="1.40632">
        <ele>275.49207027841</ele>
        <time>2017-12-11T13:13:59Z</time>
      </trkpt>
      <trkpt lat="44.44587" lon="1.40621">
        <ele>274.86465400671</ele>
        <time>2017-12-11T13:14:05Z</time>
      </trkpt>
      <trkpt lat="44.44591" lon="1.40611">
        <ele>274.21031001868</ele>
        <time>2017-12-11T13:14:12Z</time>
      </trkpt>
      <trkpt lat="44.44596" lon="1.40602">
        <ele>273.92870652459</ele>
        <time>2017-12-11T13:14:17Z</time>
      </trkpt>
      <trkpt lat="44.44599" lon="1.4059">
        <ele>273.70201222373</ele>
        <time>2017-12-11T13:14:22Z</time>
      </trkpt>
      <trkpt lat="44.44601" lon="1.40578">
        <ele>273.6150979106</ele>
        <time>2017-12-11T13:14:28Z</time>
      </trkpt>
      <trkpt lat="44.44604" lon="1.40567">
        <ele>272.73077859951</ele>
        <time>2017-12-11T13:14:36Z</time>
      </trkpt>
      <trkpt lat="44.44607" lon="1.40555">
        <ele>272.7207725546</ele>
        <time>2017-12-11T13:14:44Z</time>
      </trkpt>
      <trkpt lat="44.44612" lon="1.40546">
        <ele>272.16650151407</ele>
        <time>2017-12-11T13:14:50Z</time>
      </trkpt>
      <trkpt lat="44.44616" lon="1.40537">
        <ele>271.40610533148</ele>
        <time>2017-12-11T13:14:56Z</time>
      </trkpt>
      <trkpt lat="44.44617" lon="1.40527">
        <ele>270.79226414456</ele>
        <time>2017-12-11T13:15:01Z</time>
      </trkpt>
      <trkpt lat="44.4462" lon="1.40515">
        <ele>270.26145942846</ele>
        <time>2017-12-11T13:15:07Z</time>
      </trkpt>
      <trkpt lat="44.44622" lon="1.40504">
        <ele>270.17847900788</ele>
        <time>2017-12-11T13:15:13Z</time>
      </trkpt>
      <trkpt lat="44.44624" lon="1.40493">
        <ele>269.52477026755</ele>
        <time>2017-12-11T13:15:20Z</time>
      </trkpt>
      <trkpt lat="44.44627" lon="1.40482">
        <ele>269.12574819423</ele>
        <time>2017-12-11T13:15:25Z</time>
      </trkpt>
      <trkpt lat="44.4463" lon="1.40471">
        <ele>269.15426825704</ele>
        <time>2017-12-11T13:15:31Z</time>
      </trkpt>
      <trkpt lat="44.44631" lon="1.4046">
        <ele>269.04080172062</ele>
        <time>2017-12-11T13:15:37Z</time>
      </trkpt>
      <trkpt lat="44.44632" lon="1.40448">
        <ele>268.6216943857</ele>
        <time>2017-12-11T13:15:43Z</time>
      </trkpt>
      <trkpt lat="44.44635" lon="1.40438">
        <ele>268.00324450215</ele>
        <time>2017-12-11T13:15:49Z</time>
      </trkpt>
      <trkpt lat="44.44636" lon="1.40427">
        <ele>268.18943509945</ele>
        <time>2017-12-11T13:15:55Z</time>
      </trkpt>
      <trkpt lat="44.44639" lon="1.40418">
        <ele>268.12651862057</ele>
        <time>2017-12-11T13:16:01Z</time>
      </trkpt>
      <trkpt lat="44.44642" lon="1.40408">
        <ele>268.40391054603</ele>
        <time>2017-12-11T13:16:07Z</time>
      </trkpt>
      <trkpt lat="44.44646" lon="1.40398">
        <ele>268.75507061338</ele>
        <time>2017-12-11T13:16:13Z</time>
      </trkpt>
      <trkpt lat="44.44648" lon="1.40386">
        <ele>268.36426490147</ele>
        <time>2017-12-11T13:16:20Z</time>
      </trkpt>
      <trkpt lat="44.44651" lon="1.40375">
        <ele>267.79060404922</ele>
        <time>2017-12-11T13:16:26Z</time>
      </trkpt>
      <trkpt lat="44.44654" lon="1.40363">
        <ele>267.54582083409</ele>
        <time>2017-12-11T13:16:33Z</time>
      </trkpt>
      <trkpt lat="44.44655" lon="1.40353">
        <ele>267.32255399977</ele>
        <time>2017-12-11T13:16:38Z</time>
      </trkpt>
      <trkpt lat="44.44657" lon="1.40341">
        <ele>266.99985738029</ele>
        <time>2017-12-11T13:16:45Z</time>
      </trkpt>
      <trkpt lat="44.44657" lon="1.40329">
        <ele>266.73212141588</ele>
        <time>2017-12-11T13:16:51Z</time>
      </trkpt>
      <trkpt lat="44.44657" lon="1.40317">
        <ele>266.78704526822</ele>
        <time>2017-12-11T13:16:57Z</time>
      </trkpt>
      <trkpt lat="44.44659" lon="1.40306">
        <ele>266.71043202702</ele>
        <time>2017-12-11T13:17:04Z</time>
      </trkpt>
      <trkpt lat="44.44659" lon="1.40294">
        <ele>266.73106870948</ele>
        <time>2017-12-11T13:17:11Z</time>
      </trkpt>
      <trkpt lat="44.44659" lon="1.40284">
        <ele>266.14578857523</ele>
        <time>2017-12-11T13:17:17Z</time>
      </trkpt>
      <trkpt lat="44.44661" lon="1.40273">
        <ele>265.65785131891</ele>
        <time>2017-12-11T13:17:24Z</time>
      </trkpt>
      <trkpt lat="44.44659" lon="1.40261">
        <ele>265.76485360684</ele>
        <time>2017-12-11T13:17:32Z</time>
      </trkpt>
      <trkpt lat="44.44655" lon="1.40251">
        <ele>265.17383376961</ele>
        <time>2017-12-11T13:17:38Z</time>
      </trkpt>
      <trkpt lat="44.44652" lon="1.4024">
        <ele>263.83316814429</ele>
        <time>2017-12-11T13:17:46Z</time>
      </trkpt>
      <trkpt lat="44.44651" lon="1.40228">
        <ele>263.21987999239</ele>
        <time>2017-12-11T13:17:52Z</time>
      </trkpt>
      <trkpt lat="44.4465" lon="1.40216">
        <ele>262.53616753123</ele>
        <time>2017-12-11T13:18:00Z</time>
      </trkpt>
      <trkpt lat="44.44649" lon="1.40205">
        <ele>262.1672591146</ele>
        <time>2017-12-11T13:18:05Z</time>
      </trkpt>
      <trkpt lat="44.44646" lon="1.40194">
        <ele>261.99826305842</ele>
        <time>2017-12-11T13:18:12Z</time>
      </trkpt>
      <trkpt lat="44.44645" lon="1.40183">
        <ele>261.35191939092</ele>
        <time>2017-12-11T13:18:22Z</time>
      </trkpt>
      <trkpt lat="44.44647" lon="1.40172">
        <ele>261.01495255539</ele>
        <time>2017-12-11T13:18:28Z</time>
      </trkpt>
      <trkpt lat="44.44647" lon="1.4016">
        <ele>260.95024438246</ele>
        <time>2017-12-11T13:18:35Z</time>
      </trkpt>
      <trkpt lat="44.44644" lon="1.40149">
        <ele>260.31627358806</ele>
        <time>2017-12-11T13:18:42Z</time>
      </trkpt>
      <trkpt lat="44.44643" lon="1.40136">
        <ele>259.64485158482</ele>
        <time>2017-12-11T13:18:48Z</time>
      </trkpt>
      <trkpt lat="44.44642" lon="1.40125">
        <ele>258.98360964545</ele>
        <time>2017-12-11T13:18:56Z</time>
      </trkpt>
      <trkpt lat="44.44643" lon="1.40114">
        <ele>258.81008157779</ele>
        <time>2017-12-11T13:19:03Z</time>
      </trkpt>
      <trkpt lat="44.44643" lon="1.40102">
        <ele>258.47180077928</ele>
        <time>2017-12-11T13:19:10Z</time>
      </trkpt>
      <trkpt lat="44.44642" lon="1.40091">
        <ele>258.91640827894</ele>
        <time>2017-12-11T13:19:20Z</time>
      </trkpt>
      <trkpt lat="44.44641" lon="1.40079">
        <ele>257.94490906378</ele>
        <time>2017-12-11T13:19:27Z</time>
      </trkpt>
      <trkpt lat="44.4464" lon="1.40067">
        <ele>257.51261486759</ele>
        <time>2017-12-11T13:19:34Z</time>
      </trkpt>
      <trkpt lat="44.44639" lon="1.40055">
        <ele>257.76403795488</ele>
        <time>2017-12-11T13:19:39Z</time>
      </trkpt>
      <trkpt lat="44.44637" lon="1.40044">
        <ele>257.598303858</ele>
        <time>2017-12-11T13:19:46Z</time>
      </trkpt>
      <trkpt lat="44.44635" lon="1.40032">
        <ele>257.758972862</ele>
        <time>2017-12-11T13:19:54Z</time>
      </trkpt>
      <trkpt lat="44.44635" lon="1.4002">
        <ele>257.76259473909</ele>
        <time>2017-12-11T13:20:02Z</time>
      </trkpt>
      <trkpt lat="44.44636" lon="1.40008">
        <ele>257.04576024647</ele>
        <time>2017-12-11T13:20:11Z</time>
      </trkpt>
      <trkpt lat="44.44636" lon="1.39996">
        <ele>256.0520135823</ele>
        <time>2017-12-11T13:20:19Z</time>
      </trkpt>
      <trkpt lat="44.44635" lon="1.39985">
        <ele>255.37114647519</ele>
        <time>2017-12-11T13:20:26Z</time>
      </trkpt>
      <trkpt lat="44.44635" lon="1.39973">
        <ele>255.392644029</ele>
        <time>2017-12-11T13:20:33Z</time>
      </trkpt>
      <trkpt lat="44.44634" lon="1.39961">
        <ele>255.00527754113</ele>
        <time>2017-12-11T13:20:41Z</time>
      </trkpt>
      <trkpt lat="44.44636" lon="1.3995">
        <ele>254.6552443587</ele>
        <time>2017-12-11T13:20:52Z</time>
      </trkpt>
      <trkpt lat="44.44636" lon="1.39938">
        <ele>254.11889680334</ele>
        <time>2017-12-11T13:21:02Z</time>
      </trkpt>
      <trkpt lat="44.4464" lon="1.39927">
        <ele>253.60328094011</ele>
        <time>2017-12-11T13:21:09Z</time>
      </trkpt>
      <trkpt lat="44.44642" lon="1.39916">
        <ele>253.43663557612</ele>
        <time>2017-12-11T13:21:19Z</time>
      </trkpt>
      <trkpt lat="44.44645" lon="1.39905">
        <ele>252.72572536982</ele>
        <time>2017-12-11T13:21:33Z</time>
      </trkpt>
      <trkpt lat="44.44646" lon="1.39893">
        <ele>250.9463092916</ele>
        <time>2017-12-11T13:21:42Z</time>
      </trkpt>
      <trkpt lat="44.44646" lon="1.39881">
        <ele>250.05593340617</ele>
        <time>2017-12-11T13:21:47Z</time>
      </trkpt>
      <trkpt lat="44.44646" lon="1.39871">
        <ele>248.59890226752</ele>
        <time>2017-12-11T13:21:57Z</time>
      </trkpt>
      <trkpt lat="44.44647" lon="1.39859">
        <ele>248.30421945558</ele>
        <time>2017-12-11T13:22:05Z</time>
      </trkpt>
      <trkpt lat="44.44648" lon="1.39848">
        <ele>248.17783002533</ele>
        <time>2017-12-11T13:22:11Z</time>
      </trkpt>
      <trkpt lat="44.44647" lon="1.39835">
        <ele>246.79270151805</ele>
        <time>2017-12-11T13:22:19Z</time>
      </trkpt>
      <trkpt lat="44.44649" lon="1.39823">
        <ele>245.16935113675</ele>
        <time>2017-12-11T13:22:30Z</time>
      </trkpt>
      <trkpt lat="44.44649" lon="1.39812">
        <ele>242.69566424523</ele>
        <time>2017-12-11T13:22:39Z</time>
      </trkpt>
      <trkpt lat="44.44651" lon="1.398">
        <ele>240.17572874189</ele>
        <time>2017-12-11T13:22:48Z</time>
      </trkpt>
      <trkpt lat="44.44652" lon="1.39789">
        <ele>238.5539271429</ele>
        <time>2017-12-11T13:22:54Z</time>
      </trkpt>
      <trkpt lat="44.44652" lon="1.39778">
        <ele>237.66111715155</ele>
        <time>2017-12-11T13:23:02Z</time>
      </trkpt>
      <trkpt lat="44.44654" lon="1.39766">
        <ele>236.72750151612</ele>
        <time>2017-12-11T13:23:11Z</time>
      </trkpt>
      <trkpt lat="44.44657" lon="1.39754">
        <ele>235.92436199226</ele>
        <time>2017-12-11T13:23:16Z</time>
      </trkpt>
      <trkpt lat="44.4466" lon="1.39743">
        <ele>234.83217000245</ele>
        <time>2017-12-11T13:23:25Z</time>
      </trkpt>
      <trkpt lat="44.44662" lon="1.39731">
        <ele>234.45433323085</ele>
        <time>2017-12-11T13:23:32Z</time>
      </trkpt>
      <trkpt lat="44.44665" lon="1.3972">
        <ele>233.57564602136</ele>
        <time>2017-12-11T13:23:40Z</time>
      </trkpt>
      <trkpt lat="44.44667" lon="1.39708">
        <ele>232.77886460397</ele>
        <time>2017-12-11T13:23:49Z</time>
      </trkpt>
      <trkpt lat="44.4467" lon="1.39697">
        <ele>231.8007282131</ele>
        <time>2017-12-11T13:24:22Z</time>
      </trkpt>
      <trkpt lat="44.44672" lon="1.39685">
        <ele>230.79231329814</ele>
        <time>2017-12-11T13:24:29Z</time>
      </trkpt>
      <trkpt lat="44.44674" lon="1.39673">
        <ele>229.92976174704</ele>
        <time>2017-12-11T13:24:39Z</time>
      </trkpt>
      <trkpt lat="44.44676" lon="1.39662">
        <ele>230.17785296798</ele>
        <time>2017-12-11T13:24:47Z</time>
      </trkpt>
      <trkpt lat="44.44676" lon="1.3965">
        <ele>230.24329103934</ele>
        <time>2017-12-11T13:24:53Z</time>
      </trkpt>
      <trkpt lat="44.44675" lon="1.39639">
        <ele>230.38049839525</ele>
        <time>2017-12-11T13:25:00Z</time>
      </trkpt>
      <trkpt lat="44.44673" lon="1.39627">
        <ele>230.11413764485</ele>
        <time>2017-12-11T13:25:07Z</time>
      </trkpt>
      <trkpt lat="44.44673" lon="1.39615">
        <ele>229.46671093348</ele>
        <time>2017-12-11T13:25:17Z</time>
      </trkpt>
      <trkpt lat="44.44674" lon="1.39602">
        <ele>228.20063214091</ele>
        <time>2017-12-11T13:25:26Z</time>
      </trkpt>
      <trkpt lat="44.44674" lon="1.39591">
        <ele>226.58165526992</ele>
        <time>2017-12-11T13:25:36Z</time>
      </trkpt>
      <trkpt lat="44.44674" lon="1.39579">
        <ele>225.64220375667</ele>
        <time>2017-12-11T13:25:43Z</time>
      </trkpt>
      <trkpt lat="44.44672" lon="1.39566">
        <ele>225.54104630751</ele>
        <time>2017-12-11T13:25:49Z</time>
      </trkpt>
      <trkpt lat="44.44675" lon="1.39556">
        <ele>224.09345058354</ele>
        <time>2017-12-11T13:25:59Z</time>
      </trkpt>
      <trkpt lat="44.44677" lon="1.39544">
        <ele>222.94209273395</ele>
        <time>2017-12-11T13:26:07Z</time>
      </trkpt>
      <trkpt lat="44.44677" lon="1.39532">
        <ele>221.71214675577</ele>
        <time>2017-12-11T13:26:15Z</time>
      </trkpt>
      <trkpt lat="44.44678" lon="1.3952">
        <ele>219.89893356592</ele>
        <time>2017-12-11T13:26:24Z</time>
      </trkpt>
      <trkpt lat="44.44682" lon="1.3951">
        <ele>218.53962622336</ele>
        <time>2017-12-11T13:26:31Z</time>
      </trkpt>
      <trkpt lat="44.44688" lon="1.39501">
        <ele>217.68842577585</ele>
        <time>2017-12-11T13:26:45Z</time>
      </trkpt>
      <trkpt lat="44.4469" lon="1.39489">
        <ele>216.24253574763</ele>
        <time>2017-12-11T13:26:58Z</time>
      </trkpt>
      <trkpt lat="44.44693" lon="1.39479">
        <ele>215.13546253574</ele>
        <time>2017-12-11T13:27:12Z</time>
      </trkpt>
      <trkpt lat="44.44695" lon="1.39468">
        <ele>214.33393004589</ele>
        <time>2017-12-11T13:27:18Z</time>
      </trkpt>
      <trkpt lat="44.44693" lon="1.39454">
        <ele>213.70204047492</ele>
        <time>2017-12-11T13:27:22Z</time>
      </trkpt>
      <trkpt lat="44.44694" lon="1.39443">
        <ele>211.14677426355</ele>
        <time>2017-12-11T13:27:36Z</time>
      </trkpt>
      <trkpt lat="44.44693" lon="1.39431">
        <ele>209.99308876166</ele>
        <time>2017-12-11T13:27:42Z</time>
      </trkpt>
      <trkpt lat="44.44693" lon="1.39419">
        <ele>209.362720752</ele>
        <time>2017-12-11T13:27:51Z</time>
      </trkpt>
      <trkpt lat="44.44691" lon="1.39409">
        <ele>208.96286443643</ele>
        <time>2017-12-11T13:28:01Z</time>
      </trkpt>
      <trkpt lat="44.44687" lon="1.39399">
        <ele>208.49281793521</ele>
        <time>2017-12-11T13:28:06Z</time>
      </trkpt>
      <trkpt lat="44.4468" lon="1.39395">
        <ele>207.65862271766</ele>
        <time>2017-12-11T13:28:14Z</time>
      </trkpt>
      <trkpt lat="44.44674" lon="1.39389">
        <ele>207.13062975917</ele>
        <time>2017-12-11T13:28:19Z</time>
      </trkpt>
      <trkpt lat="44.44669" lon="1.39382">
        <ele>205.99575083333</ele>
        <time>2017-12-11T13:28:26Z</time>
      </trkpt>
      <trkpt lat="44.44664" lon="1.39368">
        <ele>204.94586473029</ele>
        <time>2017-12-11T13:28:31Z</time>
      </trkpt>
      <trkpt lat="44.44658" lon="1.39362">
        <ele>203.66550023631</ele>
        <time>2017-12-11T13:28:36Z</time>
      </trkpt>
      <trkpt lat="44.44657" lon="1.3935">
        <ele>202.24847516074</ele>
        <time>2017-12-11T13:28:44Z</time>
      </trkpt>
      <trkpt lat="44.44654" lon="1.39338">
        <ele>201.2145702982</ele>
        <time>2017-12-11T13:28:51Z</time>
      </trkpt>
      <trkpt lat="44.44653" lon="1.39326">
        <ele>197.3670009925</ele>
        <time>2017-12-11T13:29:09Z</time>
      </trkpt>
      <trkpt lat="44.44653" lon="1.39314">
        <ele>194.57999650935</ele>
        <time>2017-12-11T13:29:22Z</time>
      </trkpt>
      <trkpt lat="44.44656" lon="1.39302">
        <ele>187.71589252697</ele>
        <time>2017-12-11T13:32:05Z</time>
      </trkpt>
      <trkpt lat="44.44662" lon="1.39293">
        <ele>186.57822168318</ele>
        <time>2017-12-11T13:32:12Z</time>
      </trkpt>
      <trkpt lat="44.44667" lon="1.39283">
        <ele>185.48982040311</ele>
        <time>2017-12-11T13:32:24Z</time>
      </trkpt>
      <trkpt lat="44.44672" lon="1.39275">
        <ele>186.61218940731</ele>
        <time>2017-12-11T13:32:31Z</time>
      </trkpt>
      <trkpt lat="44.44677" lon="1.39265">
        <ele>187.47852365835</ele>
        <time>2017-12-11T13:32:42Z</time>
      </trkpt>
      <trkpt lat="44.44683" lon="1.39257">
        <ele>189.03540688247</ele>
        <time>2017-12-11T13:32:57Z</time>
      </trkpt>
      <trkpt lat="44.44688" lon="1.39248">
        <ele>189.52428259562</ele>
        <time>2017-12-11T13:33:05Z</time>
      </trkpt>
      <trkpt lat="44.44692" lon="1.39237">
        <ele>190.82984566954</ele>
        <time>2017-12-11T13:33:15Z</time>
      </trkpt>
      <trkpt lat="44.447" lon="1.39231">
        <ele>192.76558268671</ele>
        <time>2017-12-11T13:33:27Z</time>
      </trkpt>
      <trkpt lat="44.44708" lon="1.39228">
        <ele>193.90597737314</ele>
        <time>2017-12-11T13:33:36Z</time>
      </trkpt>
      <trkpt lat="44.44715" lon="1.39224">
        <ele>194.35765786296</ele>
        <time>2017-12-11T13:33:52Z</time>
      </trkpt>
      <trkpt lat="44.44723" lon="1.39219">
        <ele>194.58498410411</ele>
        <time>2017-12-11T13:33:58Z</time>
      </trkpt>
      <trkpt lat="44.4473" lon="1.39215">
        <ele>195.44285541157</ele>
        <time>2017-12-11T13:34:08Z</time>
      </trkpt>
      <trkpt lat="44.44737" lon="1.39209">
        <ele>195.68764005485</ele>
        <time>2017-12-11T13:34:13Z</time>
      </trkpt>
      <trkpt lat="44.44743" lon="1.39201">
        <ele>196.51852581153</ele>
        <time>2017-12-11T13:34:20Z</time>
      </trkpt>
      <trkpt lat="44.44747" lon="1.3919">
        <ele>198.00330870097</ele>
        <time>2017-12-11T13:34:24Z</time>
      </trkpt>
      <trkpt lat="44.44751" lon="1.39179">
        <ele>200.38582496148</ele>
        <time>2017-12-11T13:34:32Z</time>
      </trkpt>
      <trkpt lat="44.44751" lon="1.39168">
        <ele>201.41558628255</ele>
        <time>2017-12-11T13:34:40Z</time>
      </trkpt>
      <trkpt lat="44.44746" lon="1.39158">
        <ele>204.49368020083</ele>
        <time>2017-12-11T13:34:53Z</time>
      </trkpt>
      <trkpt lat="44.44744" lon="1.39148">
        <ele>206.08089669744</ele>
        <time>2017-12-11T13:35:02Z</time>
      </trkpt>
      <trkpt lat="44.44741" lon="1.39137">
        <ele>207.99272130182</ele>
        <time>2017-12-11T13:35:14Z</time>
      </trkpt>
      <trkpt lat="44.44737" lon="1.39126">
        <ele>208.99311698578</ele>
        <time>2017-12-11T13:35:21Z</time>
      </trkpt>
      <trkpt lat="44.44734" lon="1.39115">
        <ele>210.26504790967</ele>
        <time>2017-12-11T13:35:29Z</time>
      </trkpt>
      <trkpt lat="44.4473" lon="1.39105">
        <ele>211.38183016747</ele>
        <time>2017-12-11T13:35:36Z</time>
      </trkpt>
      <trkpt lat="44.44728" lon="1.39093">
        <ele>212.33521495164</ele>
        <time>2017-12-11T13:35:45Z</time>
      </trkpt>
      <trkpt lat="44.44724" lon="1.39083">
        <ele>212.99920640168</ele>
        <time>2017-12-11T13:35:53Z</time>
      </trkpt>
      <trkpt lat="44.44721" lon="1.39072">
        <ele>213.10342999607</ele>
        <time>2017-12-11T13:36:01Z</time>
      </trkpt>
      <trkpt lat="44.44718" lon="1.39061">
        <ele>212.8852902797</ele>
        <time>2017-12-11T13:36:10Z</time>
      </trkpt>
      <trkpt lat="44.44719" lon="1.39049">
        <ele>213.25801001981</ele>
        <time>2017-12-11T13:36:20Z</time>
      </trkpt>
      <trkpt lat="44.44715" lon="1.39038">
        <ele>213.52427313008</ele>
        <time>2017-12-11T13:36:27Z</time>
      </trkpt>
      <trkpt lat="44.44714" lon="1.39026">
        <ele>213.46602628378</ele>
        <time>2017-12-11T13:36:36Z</time>
      </trkpt>
      <trkpt lat="44.44713" lon="1.39014">
        <ele>213.77803477654</ele>
        <time>2017-12-11T13:36:46Z</time>
      </trkpt>
      <trkpt lat="44.44714" lon="1.39003">
        <ele>213.36855476106</ele>
        <time>2017-12-11T13:36:52Z</time>
      </trkpt>
      <trkpt lat="44.44713" lon="1.38991">
        <ele>213.71835585897</ele>
        <time>2017-12-11T13:36:59Z</time>
      </trkpt>
      <trkpt lat="44.44712" lon="1.3898">
        <ele>213.80266735263</ele>
        <time>2017-12-11T13:37:07Z</time>
      </trkpt>
      <trkpt lat="44.4471" lon="1.38969">
        <ele>213.6295479905</ele>
        <time>2017-12-11T13:37:15Z</time>
      </trkpt>
      <trkpt lat="44.4471" lon="1.38957">
        <ele>213.56935386382</ele>
        <time>2017-12-11T13:37:25Z</time>
      </trkpt>
      <trkpt lat="44.4471" lon="1.38945">
        <ele>212.27538789446</ele>
        <time>2017-12-11T13:37:33Z</time>
      </trkpt>
      <trkpt lat="44.4471" lon="1.38933">
        <ele>211.39164509446</ele>
        <time>2017-12-11T13:37:42Z</time>
      </trkpt>
      <trkpt lat="44.44713" lon="1.38922">
        <ele>210.32503919341</ele>
        <time>2017-12-11T13:37:49Z</time>
      </trkpt>
      <trkpt lat="44.44714" lon="1.38911">
        <ele>208.79389547387</ele>
        <time>2017-12-11T13:37:58Z</time>
      </trkpt>
      <trkpt lat="44.44716" lon="1.389">
        <ele>207.10715995502</ele>
        <time>2017-12-11T13:38:07Z</time>
      </trkpt>
      <trkpt lat="44.4472" lon="1.38888">
        <ele>206.98198801624</ele>
        <time>2017-12-11T13:38:13Z</time>
      </trkpt>
      <trkpt lat="44.44724" lon="1.38879">
        <ele>206.10310973732</ele>
        <time>2017-12-11T13:38:22Z</time>
      </trkpt>
      <trkpt lat="44.44729" lon="1.38871">
        <ele>203.97074896307</ele>
        <time>2017-12-11T13:38:31Z</time>
      </trkpt>
      <trkpt lat="44.44734" lon="1.3886">
        <ele>202.15442246943</ele>
        <time>2017-12-11T13:38:42Z</time>
      </trkpt>
      <trkpt lat="44.44737" lon="1.38848">
        <ele>210.4041382411</ele>
        <time>2017-12-11T13:39:14Z</time>
      </trkpt>
      <trkpt lat="44.44738" lon="1.38836">
        <ele>215.50282504064</ele>
        <time>2017-12-11T13:39:29Z</time>
      </trkpt>
      <trkpt lat="44.44745" lon="1.38829">
        <ele>229.60901249199</ele>
        <time>2017-12-11T13:40:42Z</time>
      </trkpt>
      <trkpt lat="44.4475" lon="1.3882">
        <ele>228.14596418452</ele>
        <time>2017-12-11T13:40:53Z</time>
      </trkpt>
      <trkpt lat="44.44756" lon="1.38811">
        <ele>226.35002921073</ele>
        <time>2017-12-11T13:41:05Z</time>
      </trkpt>
      <trkpt lat="44.44761" lon="1.388">
        <ele>225.58780837278</ele>
        <time>2017-12-11T13:41:14Z</time>
      </trkpt>
      <trkpt lat="44.44767" lon="1.38791">
        <ele>225.06099088909</ele>
        <time>2017-12-11T13:41:24Z</time>
      </trkpt>
      <trkpt lat="44.44772" lon="1.38781">
        <ele>224.21156153599</ele>
        <time>2017-12-11T13:41:31Z</time>
      </trkpt>
      <trkpt lat="44.44776" lon="1.38771">
        <ele>223.65442275679</ele>
        <time>2017-12-11T13:41:37Z</time>
      </trkpt>
      <trkpt lat="44.44782" lon="1.38762">
        <ele>223.43585859131</ele>
        <time>2017-12-11T13:41:43Z</time>
      </trkpt>
      <trkpt lat="44.44787" lon="1.38754">
        <ele>223.28045060901</ele>
        <time>2017-12-11T13:41:50Z</time>
      </trkpt>
      <trkpt lat="44.44793" lon="1.38745">
        <ele>223.45311597812</ele>
        <time>2017-12-11T13:41:56Z</time>
      </trkpt>
      <trkpt lat="44.44797" lon="1.38735">
        <ele>224.03636910267</ele>
        <time>2017-12-11T13:42:05Z</time>
      </trkpt>
      <trkpt lat="44.44803" lon="1.38726">
        <ele>224.67264169673</ele>
        <time>2017-12-11T13:42:12Z</time>
      </trkpt>
      <trkpt lat="44.44807" lon="1.38717">
        <ele>225.62549347583</ele>
        <time>2017-12-11T13:42:18Z</time>
      </trkpt>
      <trkpt lat="44.44812" lon="1.3871">
        <ele>226.60878397295</ele>
        <time>2017-12-11T13:42:24Z</time>
      </trkpt>
      <trkpt lat="44.44818" lon="1.38701">
        <ele>227.16957751824</ele>
        <time>2017-12-11T13:42:31Z</time>
      </trkpt>
      <trkpt lat="44.44824" lon="1.38692">
        <ele>227.59571782291</ele>
        <time>2017-12-11T13:42:37Z</time>
      </trkpt>
      <trkpt lat="44.4483" lon="1.38683">
        <ele>228.53970212236</ele>
        <time>2017-12-11T13:42:45Z</time>
      </trkpt>
      <trkpt lat="44.44835" lon="1.38675">
        <ele>228.98771995728</ele>
        <time>2017-12-11T13:42:52Z</time>
      </trkpt>
      <trkpt lat="44.4484" lon="1.38664">
        <ele>228.68650250408</ele>
        <time>2017-12-11T13:43:00Z</time>
      </trkpt>
      <trkpt lat="44.44845" lon="1.38655">
        <ele>229.29318998947</ele>
        <time>2017-12-11T13:43:06Z</time>
      </trkpt>
      <trkpt lat="44.44851" lon="1.38645">
        <ele>229.87718151334</ele>
        <time>2017-12-11T13:43:17Z</time>
      </trkpt>
      <trkpt lat="44.44858" lon="1.3864">
        <ele>229.50518207914</ele>
        <time>2017-12-11T13:43:24Z</time>
      </trkpt>
      <trkpt lat="44.44865" lon="1.38633">
        <ele>228.54256242869</ele>
        <time>2017-12-11T13:43:31Z</time>
      </trkpt>
      <trkpt lat="44.4487" lon="1.38625">
        <ele>226.2308879949</ele>
        <time>2017-12-11T13:43:40Z</time>
      </trkpt>
      <trkpt lat="44.44876" lon="1.38616">
        <ele>224.82235854166</ele>
        <time>2017-12-11T13:43:45Z</time>
      </trkpt>
      <trkpt lat="44.44881" lon="1.38606">
        <ele>223.5767135837</ele>
        <time>2017-12-11T13:43:52Z</time>
      </trkpt>
      <trkpt lat="44.44886" lon="1.38599">
        <ele>222.34291180359</ele>
        <time>2017-12-11T13:43:59Z</time>
      </trkpt>
      <trkpt lat="44.44894" lon="1.38591">
        <ele>221.69800455219</ele>
        <time>2017-12-11T13:44:05Z</time>
      </trkpt>
      <trkpt lat="44.449" lon="1.38583">
        <ele>221.90457922</ele>
        <time>2017-12-11T13:44:13Z</time>
      </trkpt>
      <trkpt lat="44.44907" lon="1.38576">
        <ele>222.19196467203</ele>
        <time>2017-12-11T13:44:20Z</time>
      </trkpt>
      <trkpt lat="44.44912" lon="1.38568">
        <ele>222.15042141436</ele>
        <time>2017-12-11T13:44:26Z</time>
      </trkpt>
      <trkpt lat="44.44917" lon="1.38561">
        <ele>222.52099637045</ele>
        <time>2017-12-11T13:44:32Z</time>
      </trkpt>
      <trkpt lat="44.44923" lon="1.38551">
        <ele>222.16688469144</ele>
        <time>2017-12-11T13:44:41Z</time>
      </trkpt>
      <trkpt lat="44.44928" lon="1.38542">
        <ele>221.95039607399</ele>
        <time>2017-12-11T13:44:47Z</time>
      </trkpt>
      <trkpt lat="44.44933" lon="1.38531">
        <ele>222.26178228178</ele>
        <time>2017-12-11T13:44:56Z</time>
      </trkpt>
      <trkpt lat="44.44937" lon="1.38523">
        <ele>222.89463239332</ele>
        <time>2017-12-11T13:45:04Z</time>
      </trkpt>
      <trkpt lat="44.44943" lon="1.38514">
        <ele>222.96299479816</ele>
        <time>2017-12-11T13:45:09Z</time>
      </trkpt>
      <trkpt lat="44.44946" lon="1.38503">
        <ele>222.6435593592</ele>
        <time>2017-12-11T13:45:16Z</time>
      </trkpt>
      <trkpt lat="44.44951" lon="1.38494">
        <ele>222.33259457227</ele>
        <time>2017-12-11T13:45:24Z</time>
      </trkpt>
      <trkpt lat="44.44956" lon="1.38484">
        <ele>221.72655855919</ele>
        <time>2017-12-11T13:45:32Z</time>
      </trkpt>
      <trkpt lat="44.44962" lon="1.38477">
        <ele>220.98268481448</ele>
        <time>2017-12-11T13:45:37Z</time>
      </trkpt>
      <trkpt lat="44.44968" lon="1.38469">
        <ele>219.72957554355</ele>
        <time>2017-12-11T13:45:44Z</time>
      </trkpt>
      <trkpt lat="44.44974" lon="1.38459">
        <ele>218.34259718079</ele>
        <time>2017-12-11T13:45:55Z</time>
      </trkpt>
      <trkpt lat="44.44979" lon="1.38449">
        <ele>217.75672884758</ele>
        <time>2017-12-11T13:46:01Z</time>
      </trkpt>
      <trkpt lat="44.44986" lon="1.38442">
        <ele>217.33331165819</ele>
        <time>2017-12-11T13:46:08Z</time>
      </trkpt>
      <trkpt lat="44.44992" lon="1.38433">
        <ele>216.37466452086</ele>
        <time>2017-12-11T13:46:15Z</time>
      </trkpt>
      <trkpt lat="44.44997" lon="1.38423">
        <ele>215.99453903822</ele>
        <time>2017-12-11T13:46:22Z</time>
      </trkpt>
      <trkpt lat="44.45001" lon="1.38412">
        <ele>229.06182714478</ele>
        <time>2017-12-11T13:47:53Z</time>
      </trkpt>
      <trkpt lat="44.45004" lon="1.38402">
        <ele>228.66176281599</ele>
        <time>2017-12-11T13:48:18Z</time>
      </trkpt>
      <trkpt lat="44.45009" lon="1.38394">
        <ele>229.42094305774</ele>
        <time>2017-12-11T13:48:25Z</time>
      </trkpt>
      <trkpt lat="44.45015" lon="1.38386">
        <ele>230.29622437345</ele>
        <time>2017-12-11T13:48:37Z</time>
      </trkpt>
      <trkpt lat="44.45019" lon="1.38376">
        <ele>230.47240463505</ele>
        <time>2017-12-11T13:48:44Z</time>
      </trkpt>
      <trkpt lat="44.45025" lon="1.38367">
        <ele>230.84075395626</ele>
        <time>2017-12-11T13:48:51Z</time>
      </trkpt>
      <trkpt lat="44.45028" lon="1.38357">
        <ele>230.86342877544</ele>
        <time>2017-12-11T13:48:58Z</time>
      </trkpt>
      <trkpt lat="44.45032" lon="1.38348">
        <ele>230.71243585036</ele>
        <time>2017-12-11T13:49:03Z</time>
      </trkpt>
      <trkpt lat="44.45037" lon="1.38341">
        <ele>230.84532486139</ele>
        <time>2017-12-11T13:49:07Z</time>
      </trkpt>
      <trkpt lat="44.45041" lon="1.38331">
        <ele>231.45258818938</ele>
        <time>2017-12-11T13:49:15Z</time>
      </trkpt>
      <trkpt lat="44.45047" lon="1.38322">
        <ele>231.54165163875</ele>
        <time>2017-12-11T13:49:24Z</time>
      </trkpt>
      <trkpt lat="44.45052" lon="1.38312">
        <ele>231.20652909289</ele>
        <time>2017-12-11T13:49:31Z</time>
      </trkpt>
      <trkpt lat="44.45058" lon="1.38303">
        <ele>231.13933457175</ele>
        <time>2017-12-11T13:49:36Z</time>
      </trkpt>
      <trkpt lat="44.45063" lon="1.38294">
        <ele>231.92596105535</ele>
        <time>2017-12-11T13:49:43Z</time>
      </trkpt>
      <trkpt lat="44.4507" lon="1.38287">
        <ele>232.94049317505</ele>
        <time>2017-12-11T13:49:51Z</time>
      </trkpt>
      <trkpt lat="44.45077" lon="1.38279">
        <ele>233.89902565704</ele>
        <time>2017-12-11T13:49:58Z</time>
      </trkpt>
      <trkpt lat="44.45084" lon="1.38274">
        <ele>234.52727938645</ele>
        <time>2017-12-11T13:50:03Z</time>
      </trkpt>
      <trkpt lat="44.4509" lon="1.38266">
        <ele>234.89404967341</ele>
        <time>2017-12-11T13:50:09Z</time>
      </trkpt>
      <trkpt lat="44.45095" lon="1.38257">
        <ele>235.21703467017</ele>
        <time>2017-12-11T13:50:15Z</time>
      </trkpt>
      <trkpt lat="44.45099" lon="1.38247">
        <ele>235.23251270734</ele>
        <time>2017-12-11T13:50:21Z</time>
      </trkpt>
      <trkpt lat="44.45106" lon="1.3824">
        <ele>235.16253489726</ele>
        <time>2017-12-11T13:50:28Z</time>
      </trkpt>
      <trkpt lat="44.45113" lon="1.38235">
        <ele>234.63437782495</ele>
        <time>2017-12-11T13:50:37Z</time>
      </trkpt>
      <trkpt lat="44.45119" lon="1.38228">
        <ele>234.12585319768</ele>
        <time>2017-12-11T13:50:44Z</time>
      </trkpt>
      <trkpt lat="44.45126" lon="1.38221">
        <ele>233.17674546252</ele>
        <time>2017-12-11T13:50:51Z</time>
      </trkpt>
      <trkpt lat="44.45131" lon="1.38212">
        <ele>232.16628071266</ele>
        <time>2017-12-11T13:50:58Z</time>
      </trkpt>
      <trkpt lat="44.45137" lon="1.38203">
        <ele>231.53037747479</ele>
        <time>2017-12-11T13:51:03Z</time>
      </trkpt>
      <trkpt lat="44.45143" lon="1.38195">
        <ele>230.62288639382</ele>
        <time>2017-12-11T13:51:10Z</time>
      </trkpt>
      <trkpt lat="44.4515" lon="1.3819">
        <ele>229.7403412441</ele>
        <time>2017-12-11T13:51:18Z</time>
      </trkpt>
      <trkpt lat="44.45157" lon="1.38184">
        <ele>228.83326140585</ele>
        <time>2017-12-11T13:51:24Z</time>
      </trkpt>
      <trkpt lat="44.45164" lon="1.38177">
        <ele>228.13945531124</ele>
        <time>2017-12-11T13:51:31Z</time>
      </trkpt>
      <trkpt lat="44.45169" lon="1.38168">
        <ele>228.24510581731</ele>
        <time>2017-12-11T13:51:36Z</time>
      </trkpt>
      <trkpt lat="44.45175" lon="1.3816">
        <ele>228.64811940364</ele>
        <time>2017-12-11T13:51:43Z</time>
      </trkpt>
      <trkpt lat="44.45181" lon="1.38153">
        <ele>228.5865610904</ele>
        <time>2017-12-11T13:51:48Z</time>
      </trkpt>
      <trkpt lat="44.45189" lon="1.38149">
        <ele>228.61296332916</ele>
        <time>2017-12-11T13:51:54Z</time>
      </trkpt>
      <trkpt lat="44.45196" lon="1.38144">
        <ele>228.74310213077</ele>
        <time>2017-12-11T13:52:03Z</time>
      </trkpt>
      <trkpt lat="44.45204" lon="1.38138">
        <ele>228.97322459988</ele>
        <time>2017-12-11T13:52:12Z</time>
      </trkpt>
      <trkpt lat="44.45211" lon="1.38131">
        <ele>228.84338869333</ele>
        <time>2017-12-11T13:52:17Z</time>
      </trkpt>
      <trkpt lat="44.45217" lon="1.38125">
        <ele>229.10563187105</ele>
        <time>2017-12-11T13:52:24Z</time>
      </trkpt>
      <trkpt lat="44.45225" lon="1.38121">
        <ele>229.32724087546</ele>
        <time>2017-12-11T13:52:31Z</time>
      </trkpt>
      <trkpt lat="44.45233" lon="1.38118">
        <ele>229.48894469113</ele>
        <time>2017-12-11T13:52:38Z</time>
      </trkpt>
      <trkpt lat="44.45242" lon="1.38114">
        <ele>229.37012698436</ele>
        <time>2017-12-11T13:52:44Z</time>
      </trkpt>
      <trkpt lat="44.45249" lon="1.3811">
        <ele>229.27280578654</ele>
        <time>2017-12-11T13:52:51Z</time>
      </trkpt>
      <trkpt lat="44.4525" lon="1.38109">
        <ele>229.30768018768</ele>
        <time>2017-12-11T13:52:52Z</time>
      </trkpt>
      <trkpt lat="44.4526" lon="1.38098">
        <ele>229.19223697296</ele>
        <time>2017-12-11T13:53:04Z</time>
      </trkpt>
      <trkpt lat="44.45268" lon="1.38093">
        <ele>228.62490436411</ele>
        <time>2017-12-11T13:53:11Z</time>
      </trkpt>
      <trkpt lat="44.45276" lon="1.38093">
        <ele>228.99435786586</ele>
        <time>2017-12-11T13:53:19Z</time>
      </trkpt>
      <trkpt lat="44.45285" lon="1.3809">
        <ele>229.16979307926</ele>
        <time>2017-12-11T13:53:24Z</time>
      </trkpt>
      <trkpt lat="44.45293" lon="1.38086">
        <ele>229.27788924539</ele>
        <time>2017-12-11T13:53:32Z</time>
      </trkpt>
      <trkpt lat="44.453" lon="1.38081">
        <ele>228.5817692397</ele>
        <time>2017-12-11T13:53:37Z</time>
      </trkpt>
      <trkpt lat="44.45308" lon="1.38078">
        <ele>227.95781942595</ele>
        <time>2017-12-11T13:53:44Z</time>
      </trkpt>
      <trkpt lat="44.45316" lon="1.38073">
        <ele>227.05109058404</ele>
        <time>2017-12-11T13:53:52Z</time>
      </trkpt>
      <trkpt lat="44.45323" lon="1.38068">
        <ele>226.36637565432</ele>
        <time>2017-12-11T13:54:01Z</time>
      </trkpt>
      <trkpt lat="44.4533" lon="1.38061">
        <ele>226.46429194051</ele>
        <time>2017-12-11T13:54:08Z</time>
      </trkpt>
      <trkpt lat="44.45336" lon="1.38053">
        <ele>226.60613785892</ele>
        <time>2017-12-11T13:54:16Z</time>
      </trkpt>
      <trkpt lat="44.45343" lon="1.38044">
        <ele>228.6112384441</ele>
        <time>2017-12-11T13:54:25Z</time>
      </trkpt>
      <trkpt lat="44.45349" lon="1.38039">
        <ele>229.80268845878</ele>
        <time>2017-12-11T13:54:33Z</time>
      </trkpt>
      <trkpt lat="44.45356" lon="1.38032">
        <ele>231.00817903802</ele>
        <time>2017-12-11T13:54:41Z</time>
      </trkpt>
      <trkpt lat="44.45361" lon="1.38024">
        <ele>231.65668170496</ele>
        <time>2017-12-11T13:54:48Z</time>
      </trkpt>
      <trkpt lat="44.45368" lon="1.38015">
        <ele>233.06942405244</ele>
        <time>2017-12-11T13:54:57Z</time>
      </trkpt>
      <trkpt lat="44.45372" lon="1.38007">
        <ele>234.05972005932</ele>
        <time>2017-12-11T13:55:04Z</time>
      </trkpt>
      <trkpt lat="44.45378" lon="1.37997">
        <ele>235.21605400198</ele>
        <time>2017-12-11T13:55:15Z</time>
      </trkpt>
      <trkpt lat="44.45382" lon="1.37987">
        <ele>236.48644093806</ele>
        <time>2017-12-11T13:55:25Z</time>
      </trkpt>
      <trkpt lat="44.45387" lon="1.37977">
        <ele>236.80679322112</ele>
        <time>2017-12-11T13:55:33Z</time>
      </trkpt>
      <trkpt lat="44.45391" lon="1.37966">
        <ele>237.73196420208</ele>
        <time>2017-12-11T13:55:43Z</time>
      </trkpt>
      <trkpt lat="44.45395" lon="1.37957">
        <ele>237.82722612656</ele>
        <time>2017-12-11T13:55:49Z</time>
      </trkpt>
      <trkpt lat="44.454" lon="1.37948">
        <ele>237.77041516731</ele>
        <time>2017-12-11T13:55:57Z</time>
      </trkpt>
      <trkpt lat="44.45404" lon="1.37938">
        <ele>238.69190355016</ele>
        <time>2017-12-11T13:56:06Z</time>
      </trkpt>
      <trkpt lat="44.45409" lon="1.37929">
        <ele>239.87805280515</ele>
        <time>2017-12-11T13:56:13Z</time>
      </trkpt>
      <trkpt lat="44.45415" lon="1.3792">
        <ele>240.97112817494</ele>
        <time>2017-12-11T13:56:21Z</time>
      </trkpt>
      <trkpt lat="44.45418" lon="1.37909">
        <ele>242.18964443326</ele>
        <time>2017-12-11T13:56:31Z</time>
      </trkpt>
      <trkpt lat="44.45422" lon="1.37898">
        <ele>242.70182196972</ele>
        <time>2017-12-11T13:56:39Z</time>
      </trkpt>
      <trkpt lat="44.45425" lon="1.37889">
        <ele>243.54785979674</ele>
        <time>2017-12-11T13:56:48Z</time>
      </trkpt>
      <trkpt lat="44.45431" lon="1.3788">
        <ele>245.31787005734</ele>
        <time>2017-12-11T13:57:05Z</time>
      </trkpt>
      <trkpt lat="44.45437" lon="1.37871">
        <ele>245.2596957779</ele>
        <time>2017-12-11T13:57:10Z</time>
      </trkpt>
      <trkpt lat="44.45443" lon="1.37863">
        <ele>245.63874883085</ele>
        <time>2017-12-11T13:57:17Z</time>
      </trkpt>
      <trkpt lat="44.45446" lon="1.37853">
        <ele>245.7300063222</ele>
        <time>2017-12-11T13:57:22Z</time>
      </trkpt>
      <trkpt lat="44.45449" lon="1.37842">
        <ele>245.81790554105</ele>
        <time>2017-12-11T13:57:27Z</time>
      </trkpt>
      <trkpt lat="44.45452" lon="1.37831">
        <ele>246.37588231191</ele>
        <time>2017-12-11T13:57:35Z</time>
      </trkpt>
      <trkpt lat="44.45457" lon="1.37824">
        <ele>246.95989540681</ele>
        <time>2017-12-11T13:57:42Z</time>
      </trkpt>
      <trkpt lat="44.45463" lon="1.37814">
        <ele>247.50059391747</ele>
        <time>2017-12-11T13:57:50Z</time>
      </trkpt>
      <trkpt lat="44.45468" lon="1.37805">
        <ele>247.66620176325</ele>
        <time>2017-12-11T13:57:57Z</time>
      </trkpt>
      <trkpt lat="44.45472" lon="1.37794">
        <ele>248.17768315232</ele>
        <time>2017-12-11T13:58:05Z</time>
      </trkpt>
      <trkpt lat="44.45476" lon="1.37784">
        <ele>248.62476473471</ele>
        <time>2017-12-11T13:58:13Z</time>
      </trkpt>
      <trkpt lat="44.45484" lon="1.37778">
        <ele>248.79729544577</ele>
        <time>2017-12-11T13:58:22Z</time>
      </trkpt>
      <trkpt lat="44.45492" lon="1.37781">
        <ele>255.62960243238</ele>
        <time>2017-12-11T14:00:46Z</time>
      </trkpt>
      <trkpt lat="44.45497" lon="1.3779">
        <ele>256.32085554266</ele>
        <time>2017-12-11T14:00:58Z</time>
      </trkpt>
      <trkpt lat="44.45498" lon="1.37801">
        <ele>257.36039856281</ele>
        <time>2017-12-11T14:01:04Z</time>
      </trkpt>
      <trkpt lat="44.455" lon="1.37811">
        <ele>257.95195481273</ele>
        <time>2017-12-11T14:01:11Z</time>
      </trkpt>
      <trkpt lat="44.45503" lon="1.37821">
        <ele>258.6638240962</ele>
        <time>2017-12-11T14:01:18Z</time>
      </trkpt>
      <trkpt lat="44.45506" lon="1.37832">
        <ele>259.63663870522</ele>
        <time>2017-12-11T14:01:24Z</time>
      </trkpt>
      <trkpt lat="44.4551" lon="1.37843">
        <ele>260.68136698816</ele>
        <time>2017-12-11T14:01:30Z</time>
      </trkpt>
      <trkpt lat="44.45513" lon="1.37853">
        <ele>262.50371635465</ele>
        <time>2017-12-11T14:01:37Z</time>
      </trkpt>
      <trkpt lat="44.45515" lon="1.37864">
        <ele>264.35627168044</ele>
        <time>2017-12-11T14:01:43Z</time>
      </trkpt>
      <trkpt lat="44.4552" lon="1.37874">
        <ele>265.91837786059</ele>
        <time>2017-12-11T14:01:52Z</time>
      </trkpt>
      <trkpt lat="44.45523" lon="1.37885">
        <ele>266.15501176039</ele>
        <time>2017-12-11T14:01:59Z</time>
      </trkpt>
      <trkpt lat="44.45526" lon="1.37896">
        <ele>266.20459253723</ele>
        <time>2017-12-11T14:02:06Z</time>
      </trkpt>
      <trkpt lat="44.45531" lon="1.37906">
        <ele>266.58621949153</ele>
        <time>2017-12-11T14:02:16Z</time>
      </trkpt>
      <trkpt lat="44.45535" lon="1.37915">
        <ele>266.47994358545</ele>
        <time>2017-12-11T14:02:22Z</time>
      </trkpt>
      <trkpt lat="44.4554" lon="1.37924">
        <ele>266.25376174647</ele>
        <time>2017-12-11T14:02:28Z</time>
      </trkpt>
      <trkpt lat="44.45546" lon="1.37933">
        <ele>265.45245555281</ele>
        <time>2017-12-11T14:02:34Z</time>
      </trkpt>
      <trkpt lat="44.45552" lon="1.37941">
        <ele>265.28036287915</ele>
        <time>2017-12-11T14:02:42Z</time>
      </trkpt>
      <trkpt lat="44.45557" lon="1.37951">
        <ele>265.13081321266</ele>
        <time>2017-12-11T14:02:51Z</time>
      </trkpt>
      <trkpt lat="44.45563" lon="1.3796">
        <ele>264.62233210756</ele>
        <time>2017-12-11T14:03:00Z</time>
      </trkpt>
      <trkpt lat="44.45567" lon="1.37967">
        <ele>264.17230985795</ele>
        <time>2017-12-11T14:03:05Z</time>
      </trkpt>
      <trkpt lat="44.45572" lon="1.37975">
        <ele>263.46975955214</ele>
        <time>2017-12-11T14:03:09Z</time>
      </trkpt>
      <trkpt lat="44.45579" lon="1.37984">
        <ele>262.48560604189</ele>
        <time>2017-12-11T14:03:14Z</time>
      </trkpt>
      <trkpt lat="44.45584" lon="1.37994">
        <ele>261.86980839137</ele>
        <time>2017-12-11T14:03:21Z</time>
      </trkpt>
      <trkpt lat="44.45587" lon="1.38006">
        <ele>261.81675161903</ele>
        <time>2017-12-11T14:03:27Z</time>
      </trkpt>
      <trkpt lat="44.45592" lon="1.38016">
        <ele>261.38293188579</ele>
        <time>2017-12-11T14:03:35Z</time>
      </trkpt>
      <trkpt lat="44.45598" lon="1.38025">
        <ele>262.11833679354</ele>
        <time>2017-12-11T14:03:45Z</time>
      </trkpt>
      <trkpt lat="44.45604" lon="1.3803">
        <ele>262.66516839233</ele>
        <time>2017-12-11T14:03:50Z</time>
      </trkpt>
      <trkpt lat="44.45609" lon="1.3804">
        <ele>262.92950723515</ele>
        <time>2017-12-11T14:03:56Z</time>
      </trkpt>
      <trkpt lat="44.45612" lon="1.38051">
        <ele>262.22541032812</ele>
        <time>2017-12-11T14:04:04Z</time>
      </trkpt>
      <trkpt lat="44.45617" lon="1.3806">
        <ele>261.46895469611</ele>
        <time>2017-12-11T14:04:10Z</time>
      </trkpt>
      <trkpt lat="44.45625" lon="1.38065">
        <ele>260.73650422793</ele>
        <time>2017-12-11T14:04:16Z</time>
      </trkpt>
      <trkpt lat="44.45629" lon="1.38076">
        <ele>259.75099271046</ele>
        <time>2017-12-11T14:04:24Z</time>
      </trkpt>
      <trkpt lat="44.45632" lon="1.38086">
        <ele>259.06230617951</ele>
        <time>2017-12-11T14:04:29Z</time>
      </trkpt>
      <trkpt lat="44.45636" lon="1.38096">
        <ele>258.10542197582</ele>
        <time>2017-12-11T14:04:35Z</time>
      </trkpt>
      <trkpt lat="44.45643" lon="1.38105">
        <ele>257.93187722909</ele>
        <time>2017-12-11T14:04:42Z</time>
      </trkpt>
      <trkpt lat="44.45649" lon="1.38113">
        <ele>257.5846027471</ele>
        <time>2017-12-11T14:04:47Z</time>
      </trkpt>
      <trkpt lat="44.45654" lon="1.38121">
        <ele>257.41047547728</ele>
        <time>2017-12-11T14:04:54Z</time>
      </trkpt>
      <trkpt lat="44.4566" lon="1.38129">
        <ele>257.93555242221</ele>
        <time>2017-12-11T14:04:59Z</time>
      </trkpt>
      <trkpt lat="44.45666" lon="1.38138">
        <ele>258.02355738148</ele>
        <time>2017-12-11T14:05:07Z</time>
      </trkpt>
      <trkpt lat="44.45673" lon="1.38146">
        <ele>257.89357177478</ele>
        <time>2017-12-11T14:05:13Z</time>
      </trkpt>
      <trkpt lat="44.45679" lon="1.38154">
        <ele>257.44243720386</ele>
        <time>2017-12-11T14:05:19Z</time>
      </trkpt>
      <trkpt lat="44.45684" lon="1.38162">
        <ele>256.81537572638</ele>
        <time>2017-12-11T14:05:25Z</time>
      </trkpt>
      <trkpt lat="44.45689" lon="1.38172">
        <ele>256.37289375338</ele>
        <time>2017-12-11T14:05:32Z</time>
      </trkpt>
      <trkpt lat="44.45694" lon="1.38181">
        <ele>255.76659123905</ele>
        <time>2017-12-11T14:05:41Z</time>
      </trkpt>
      <trkpt lat="44.457" lon="1.38187">
        <ele>255.4266764341</ele>
        <time>2017-12-11T14:05:49Z</time>
      </trkpt>
      <trkpt lat="44.45707" lon="1.38196">
        <ele>253.97116994605</ele>
        <time>2017-12-11T14:05:56Z</time>
      </trkpt>
      <trkpt lat="44.45713" lon="1.38204">
        <ele>253.32722109421</ele>
        <time>2017-12-11T14:06:02Z</time>
      </trkpt>
      <trkpt lat="44.45718" lon="1.38214">
        <ele>252.91236400234</ele>
        <time>2017-12-11T14:06:08Z</time>
      </trkpt>
      <trkpt lat="44.45724" lon="1.38222">
        <ele>252.19477248982</ele>
        <time>2017-12-11T14:06:15Z</time>
      </trkpt>
      <trkpt lat="44.45729" lon="1.3823">
        <ele>252.08276225272</ele>
        <time>2017-12-11T14:06:21Z</time>
      </trkpt>
      <trkpt lat="44.45736" lon="1.38238">
        <ele>252.35750538615</ele>
        <time>2017-12-11T14:06:27Z</time>
      </trkpt>
      <trkpt lat="44.45741" lon="1.38246">
        <ele>253.02916308498</ele>
        <time>2017-12-11T14:06:35Z</time>
      </trkpt>
      <trkpt lat="44.45749" lon="1.38253">
        <ele>253.6224291824</ele>
        <time>2017-12-11T14:06:42Z</time>
      </trkpt>
      <trkpt lat="44.45755" lon="1.38261">
        <ele>253.56722525675</ele>
        <time>2017-12-11T14:06:49Z</time>
      </trkpt>
      <trkpt lat="44.45762" lon="1.38268">
        <ele>253.21447370956</ele>
        <time>2017-12-11T14:06:57Z</time>
      </trkpt>
      <trkpt lat="44.4577" lon="1.38272">
        <ele>252.55492486293</ele>
        <time>2017-12-11T14:07:05Z</time>
      </trkpt>
      <trkpt lat="44.45777" lon="1.38274">
        <ele>251.29145803914</ele>
        <time>2017-12-11T14:07:13Z</time>
      </trkpt>
      <trkpt lat="44.45786" lon="1.38276">
        <ele>250.40594193714</ele>
        <time>2017-12-11T14:07:20Z</time>
      </trkpt>
      <trkpt lat="44.45794" lon="1.38279">
        <ele>249.72792909375</ele>
        <time>2017-12-11T14:07:29Z</time>
      </trkpt>
      <trkpt lat="44.45802" lon="1.38282">
        <ele>249.44815498887</ele>
        <time>2017-12-11T14:07:36Z</time>
      </trkpt>
      <trkpt lat="44.45811" lon="1.38284">
        <ele>248.50110024413</ele>
        <time>2017-12-11T14:07:43Z</time>
      </trkpt>
      <trkpt lat="44.45819" lon="1.38285">
        <ele>247.52550660441</ele>
        <time>2017-12-11T14:07:52Z</time>
      </trkpt>
      <trkpt lat="44.45828" lon="1.38287">
        <ele>246.87772763422</ele>
        <time>2017-12-11T14:07:58Z</time>
      </trkpt>
      <trkpt lat="44.45835" lon="1.38294">
        <ele>244.57045869094</ele>
        <time>2017-12-11T14:08:09Z</time>
      </trkpt>
      <trkpt lat="44.45844" lon="1.38295">
        <ele>243.4209155224</ele>
        <time>2017-12-11T14:08:17Z</time>
      </trkpt>
      <trkpt lat="44.45852" lon="1.38299">
        <ele>242.23234735871</ele>
        <time>2017-12-11T14:08:26Z</time>
      </trkpt>
      <trkpt lat="44.4586" lon="1.38304">
        <ele>240.99275245417</ele>
        <time>2017-12-11T14:08:35Z</time>
      </trkpt>
      <trkpt lat="44.45868" lon="1.38307">
        <ele>239.96912316337</ele>
        <time>2017-12-11T14:08:41Z</time>
      </trkpt>
      <trkpt lat="44.45876" lon="1.38314">
        <ele>239.41329138688</ele>
        <time>2017-12-11T14:08:47Z</time>
      </trkpt>
      <trkpt lat="44.45883" lon="1.38319">
        <ele>237.46215648857</ele>
        <time>2017-12-11T14:08:57Z</time>
      </trkpt>
      <trkpt lat="44.4589" lon="1.38327">
        <ele>236.42097690356</ele>
        <time>2017-12-11T14:09:03Z</time>
      </trkpt>
      <trkpt lat="44.45897" lon="1.38331">
        <ele>235.09080894286</ele>
        <time>2017-12-11T14:09:13Z</time>
      </trkpt>
      <trkpt lat="44.45905" lon="1.38335">
        <ele>234.17689653482</ele>
        <time>2017-12-11T14:09:18Z</time>
      </trkpt>
      <trkpt lat="44.45913" lon="1.38341">
        <ele>232.97989598399</ele>
        <time>2017-12-11T14:09:28Z</time>
      </trkpt>
      <trkpt lat="44.45921" lon="1.38344">
        <ele>231.61211770799</ele>
        <time>2017-12-11T14:09:35Z</time>
      </trkpt>
      <trkpt lat="44.45928" lon="1.38351">
        <ele>230.56026512139</ele>
        <time>2017-12-11T14:09:43Z</time>
      </trkpt>
      <trkpt lat="44.45936" lon="1.38354">
        <ele>228.16240887969</ele>
        <time>2017-12-11T14:09:53Z</time>
      </trkpt>
      <trkpt lat="44.45944" lon="1.38357">
        <ele>225.87142008566</ele>
        <time>2017-12-11T14:10:00Z</time>
      </trkpt>
      <trkpt lat="44.45953" lon="1.3836">
        <ele>223.4589168583</ele>
        <time>2017-12-11T14:10:10Z</time>
      </trkpt>
      <trkpt lat="44.4596" lon="1.38366">
        <ele>221.66389134681</ele>
        <time>2017-12-11T14:10:19Z</time>
      </trkpt>
      <trkpt lat="44.45967" lon="1.3837">
        <ele>220.58735177164</ele>
        <time>2017-12-11T14:10:25Z</time>
      </trkpt>
      <trkpt lat="44.45975" lon="1.38374">
        <ele>219.68423108231</ele>
        <time>2017-12-11T14:10:30Z</time>
      </trkpt>
      <trkpt lat="44.4598" lon="1.3838">
        <ele>218.04540744658</ele>
        <time>2017-12-11T14:10:37Z</time>
      </trkpt>
      <trkpt lat="44.45989" lon="1.38382">
        <ele>216.66423175581</ele>
        <time>2017-12-11T14:10:42Z</time>
      </trkpt>
      <trkpt lat="44.45997" lon="1.38387">
        <ele>214.6224297812</ele>
        <time>2017-12-11T14:10:50Z</time>
      </trkpt>
      <trkpt lat="44.46003" lon="1.38395">
        <ele>213.80397820469</ele>
        <time>2017-12-11T14:10:55Z</time>
      </trkpt>
      <trkpt lat="44.46009" lon="1.38404">
        <ele>212.81269755054</ele>
        <time>2017-12-11T14:11:04Z</time>
      </trkpt>
      <trkpt lat="44.46016" lon="1.38411">
        <ele>212.42340009913</ele>
        <time>2017-12-11T14:11:10Z</time>
      </trkpt>
      <trkpt lat="44.46025" lon="1.38418">
        <ele>212.04322094807</ele>
        <time>2017-12-11T14:11:15Z</time>
      </trkpt>
      <trkpt lat="44.46028" lon="1.38426">
        <ele>211.76668565781</ele>
        <time>2017-12-11T14:11:23Z</time>
      </trkpt>
      <trkpt lat="44.46035" lon="1.38438">
        <ele>211.8063439824</ele>
        <time>2017-12-11T14:11:28Z</time>
      </trkpt>
      <trkpt lat="44.46041" lon="1.38446">
        <ele>211.86242707637</ele>
        <time>2017-12-11T14:11:34Z</time>
      </trkpt>
      <trkpt lat="44.46047" lon="1.38454">
        <ele>212.38700432359</ele>
        <time>2017-12-11T14:11:42Z</time>
      </trkpt>
      <trkpt lat="44.46052" lon="1.38463">
        <ele>213.08652804334</ele>
        <time>2017-12-11T14:11:46Z</time>
      </trkpt>
      <trkpt lat="44.46059" lon="1.3847">
        <ele>214.25823080037</ele>
        <time>2017-12-11T14:11:52Z</time>
      </trkpt>
      <trkpt lat="44.46065" lon="1.38475">
        <ele>215.13613936653</ele>
        <time>2017-12-11T14:11:56Z</time>
      </trkpt>
      <trkpt lat="44.46072" lon="1.38483">
        <ele>216.61168135576</ele>
        <time>2017-12-11T14:12:04Z</time>
      </trkpt>
      <trkpt lat="44.46077" lon="1.3849">
        <ele>217.4414689882</ele>
        <time>2017-12-11T14:12:11Z</time>
      </trkpt>
      <trkpt lat="44.46083" lon="1.38499">
        <ele>217.5400964577</ele>
        <time>2017-12-11T14:12:16Z</time>
      </trkpt>
      <trkpt lat="44.4609" lon="1.38503">
        <ele>217.88150920041</ele>
        <time>2017-12-11T14:12:22Z</time>
      </trkpt>
      <trkpt lat="44.46097" lon="1.38509">
        <ele>219.09333860816</ele>
        <time>2017-12-11T14:12:29Z</time>
      </trkpt>
      <trkpt lat="44.46104" lon="1.38518">
        <ele>220.57126149402</ele>
        <time>2017-12-11T14:12:37Z</time>
      </trkpt>
      <trkpt lat="44.4611" lon="1.38526">
        <ele>221.86286231069</ele>
        <time>2017-12-11T14:12:46Z</time>
      </trkpt>
      <trkpt lat="44.46115" lon="1.38536">
        <ele>222.75661457004</ele>
        <time>2017-12-11T14:12:54Z</time>
      </trkpt>
      <trkpt lat="44.4612" lon="1.38546">
        <ele>222.85262680932</ele>
        <time>2017-12-11T14:13:01Z</time>
      </trkpt>
      <trkpt lat="44.46125" lon="1.38555">
        <ele>223.31289514344</ele>
        <time>2017-12-11T14:13:07Z</time>
      </trkpt>
      <trkpt lat="44.4613" lon="1.38563">
        <ele>224.04188172287</ele>
        <time>2017-12-11T14:13:13Z</time>
      </trkpt>
      <trkpt lat="44.46135" lon="1.38573">
        <ele>225.11231395538</ele>
        <time>2017-12-11T14:13:21Z</time>
      </trkpt>
      <trkpt lat="44.46141" lon="1.38582">
        <ele>225.77233620684</ele>
        <time>2017-12-11T14:13:28Z</time>
      </trkpt>
      <trkpt lat="44.46147" lon="1.3859">
        <ele>226.72780062072</ele>
        <time>2017-12-11T14:13:35Z</time>
      </trkpt>
      <trkpt lat="44.46152" lon="1.38599">
        <ele>227.32079004438</ele>
        <time>2017-12-11T14:13:42Z</time>
      </trkpt>
      <trkpt lat="44.46158" lon="1.38608">
        <ele>227.92397902019</ele>
        <time>2017-12-11T14:13:49Z</time>
      </trkpt>
      <trkpt lat="44.46164" lon="1.38617">
        <ele>228.57220581019</ele>
        <time>2017-12-11T14:13:56Z</time>
      </trkpt>
      <trkpt lat="44.46169" lon="1.38626">
        <ele>228.7356306732</ele>
        <time>2017-12-11T14:14:02Z</time>
      </trkpt>
      <trkpt lat="44.46175" lon="1.38634">
        <ele>228.46873183183</ele>
        <time>2017-12-11T14:14:10Z</time>
      </trkpt>
      <trkpt lat="44.46181" lon="1.3864">
        <ele>228.64763014486</ele>
        <time>2017-12-11T14:14:15Z</time>
      </trkpt>
      <trkpt lat="44.46185" lon="1.3865">
        <ele>229.01516560008</ele>
        <time>2017-12-11T14:14:24Z</time>
      </trkpt>
      <trkpt lat="44.4619" lon="1.38659">
        <ele>229.18471342478</ele>
        <time>2017-12-11T14:14:32Z</time>
      </trkpt>
      <trkpt lat="44.46195" lon="1.38669">
        <ele>229.1123515671</ele>
        <time>2017-12-11T14:14:40Z</time>
      </trkpt>
      <trkpt lat="44.46201" lon="1.38677">
        <ele>228.89762020244</ele>
        <time>2017-12-11T14:14:46Z</time>
      </trkpt>
      <trkpt lat="44.46206" lon="1.38685">
        <ele>228.18647545879</ele>
        <time>2017-12-11T14:14:53Z</time>
      </trkpt>
      <trkpt lat="44.46213" lon="1.38694">
        <ele>227.52455542765</ele>
        <time>2017-12-11T14:15:02Z</time>
      </trkpt>
      <trkpt lat="44.46219" lon="1.38701">
        <ele>227.39353143452</ele>
        <time>2017-12-11T14:15:07Z</time>
      </trkpt>
      <trkpt lat="44.46226" lon="1.38709">
        <ele>227.17622589719</ele>
        <time>2017-12-11T14:15:13Z</time>
      </trkpt>
      <trkpt lat="44.46231" lon="1.38718">
        <ele>226.71049901106</ele>
        <time>2017-12-11T14:15:21Z</time>
      </trkpt>
      <trkpt lat="44.46238" lon="1.38725">
        <ele>226.47308617354</ele>
        <time>2017-12-11T14:15:27Z</time>
      </trkpt>
      <trkpt lat="44.46243" lon="1.38732">
        <ele>226.52009825123</ele>
        <time>2017-12-11T14:15:33Z</time>
      </trkpt>
      <trkpt lat="44.4625" lon="1.38739">
        <ele>225.9902751746</ele>
        <time>2017-12-11T14:15:41Z</time>
      </trkpt>
      <trkpt lat="44.46255" lon="1.38746">
        <ele>226.32733958524</ele>
        <time>2017-12-11T14:15:53Z</time>
      </trkpt>
      <trkpt lat="44.46262" lon="1.38752">
        <ele>226.06428087875</ele>
        <time>2017-12-11T14:16:00Z</time>
      </trkpt>
      <trkpt lat="44.46268" lon="1.38761">
        <ele>226.08583203033</ele>
        <time>2017-12-11T14:16:10Z</time>
      </trkpt>
      <trkpt lat="44.46274" lon="1.38771">
        <ele>225.55953076102</ele>
        <time>2017-12-11T14:16:19Z</time>
      </trkpt>
      <trkpt lat="44.46281" lon="1.38775">
        <ele>225.11264049166</ele>
        <time>2017-12-11T14:16:27Z</time>
      </trkpt>
      <trkpt lat="44.46288" lon="1.38779">
        <ele>224.95958271196</ele>
        <time>2017-12-11T14:16:34Z</time>
      </trkpt>
      <trkpt lat="44.46296" lon="1.38785">
        <ele>225.01381111762</ele>
        <time>2017-12-11T14:16:40Z</time>
      </trkpt>
      <trkpt lat="44.46304" lon="1.3879">
        <ele>225.17553457305</ele>
        <time>2017-12-11T14:16:48Z</time>
      </trkpt>
      <trkpt lat="44.46312" lon="1.38794">
        <ele>225.43183920278</ele>
        <time>2017-12-11T14:16:55Z</time>
      </trkpt>
      <trkpt lat="44.4632" lon="1.388">
        <ele>225.3237686468</ele>
        <time>2017-12-11T14:17:01Z</time>
      </trkpt>
      <trkpt lat="44.46328" lon="1.38803">
        <ele>224.77818195433</ele>
        <time>2017-12-11T14:17:08Z</time>
      </trkpt>
      <trkpt lat="44.46336" lon="1.38808">
        <ele>223.88538130507</ele>
        <time>2017-12-11T14:17:16Z</time>
      </trkpt>
      <trkpt lat="44.46345" lon="1.38811">
        <ele>223.62456304441</ele>
        <time>2017-12-11T14:17:27Z</time>
      </trkpt>
      <trkpt lat="44.46353" lon="1.38814">
        <ele>222.27407032315</ele>
        <time>2017-12-11T14:17:37Z</time>
      </trkpt>
      <trkpt lat="44.46358" lon="1.38819">
        <ele>221.73805525289</ele>
        <time>2017-12-11T14:17:42Z</time>
      </trkpt>
      <trkpt lat="44.46366" lon="1.38825">
        <ele>221.21744436252</ele>
        <time>2017-12-11T14:17:46Z</time>
      </trkpt>
      <trkpt lat="44.46374" lon="1.38829">
        <ele>219.48775475677</ele>
        <time>2017-12-11T14:17:55Z</time>
      </trkpt>
      <trkpt lat="44.46382" lon="1.38832">
        <ele>217.56707729608</ele>
        <time>2017-12-11T14:18:05Z</time>
      </trkpt>
      <trkpt lat="44.4639" lon="1.38837">
        <ele>216.47014646551</ele>
        <time>2017-12-11T14:18:13Z</time>
      </trkpt>
      <trkpt lat="44.46396" lon="1.38844">
        <ele>215.26568972069</ele>
        <time>2017-12-11T14:18:20Z</time>
      </trkpt>
      <trkpt lat="44.46401" lon="1.38852">
        <ele>213.61068922069</ele>
        <time>2017-12-11T14:18:32Z</time>
      </trkpt>
      <trkpt lat="44.46409" lon="1.38857">
        <ele>213.18150435565</ele>
        <time>2017-12-11T14:18:37Z</time>
      </trkpt>
      <trkpt lat="44.46416" lon="1.38861">
        <ele>212.89990678235</ele>
        <time>2017-12-11T14:18:44Z</time>
      </trkpt>
      <trkpt lat="44.46425" lon="1.38862">
        <ele>211.37262226598</ele>
        <time>2017-12-11T14:18:51Z</time>
      </trkpt>
      <trkpt lat="44.46433" lon="1.38864">
        <ele>210.21516882702</ele>
        <time>2017-12-11T14:18:56Z</time>
      </trkpt>
      <trkpt lat="44.46441" lon="1.38865">
        <ele>208.94636004617</ele>
        <time>2017-12-11T14:19:04Z</time>
      </trkpt>
      <trkpt lat="44.46449" lon="1.3887">
        <ele>207.47635890418</ele>
        <time>2017-12-11T14:19:16Z</time>
      </trkpt>
      <trkpt lat="44.46458" lon="1.38874">
        <ele>205.19728794147</ele>
        <time>2017-12-11T14:19:34Z</time>
      </trkpt>
      <trkpt lat="44.46462" lon="1.38882">
        <ele>202.31341935646</ele>
        <time>2017-12-11T14:19:51Z</time>
      </trkpt>
      <trkpt lat="44.46469" lon="1.38889">
        <ele>201.51400883078</ele>
        <time>2017-12-11T14:19:56Z</time>
      </trkpt>
      <trkpt lat="44.46476" lon="1.38892">
        <ele>200.73063151062</ele>
        <time>2017-12-11T14:20:01Z</time>
      </trkpt>
      <trkpt lat="44.46487" lon="1.38901">
        <ele>199.74346580046</ele>
        <time>2017-12-11T14:20:06Z</time>
      </trkpt>
      <trkpt lat="44.46495" lon="1.38903">
        <ele>198.86201693762</ele>
        <time>2017-12-11T14:20:13Z</time>
      </trkpt>
      <trkpt lat="44.46503" lon="1.38906">
        <ele>198.66707663923</ele>
        <time>2017-12-11T14:20:22Z</time>
      </trkpt>
      <trkpt lat="44.4651" lon="1.3891">
        <ele>197.73217842636</ele>
        <time>2017-12-11T14:20:31Z</time>
      </trkpt>
      <trkpt lat="44.46517" lon="1.38915">
        <ele>193.93597549082</ele>
        <time>2017-12-11T14:20:47Z</time>
      </trkpt>
      <trkpt lat="44.46521" lon="1.3892">
        <ele>193.06923607442</ele>
        <time>2017-12-11T14:20:54Z</time>
      </trkpt>
      <trkpt lat="44.46533" lon="1.38928">
        <ele>192.91030933289</ele>
        <time>2017-12-11T14:20:59Z</time>
      </trkpt>
      <trkpt lat="44.46539" lon="1.38932">
        <ele>192.63919935831</ele>
        <time>2017-12-11T14:21:03Z</time>
      </trkpt>
      <trkpt lat="44.46551" lon="1.38938">
        <ele>192.16592044876</ele>
        <time>2017-12-11T14:21:08Z</time>
      </trkpt>
      <trkpt lat="44.46559" lon="1.38941">
        <ele>190.37114793443</ele>
        <time>2017-12-11T14:21:19Z</time>
      </trkpt>
      <trkpt lat="44.46567" lon="1.38946">
        <ele>190.29472596496</ele>
        <time>2017-12-11T14:21:24Z</time>
      </trkpt>
      <trkpt lat="44.46576" lon="1.38949">
        <ele>190.26018768756</ele>
        <time>2017-12-11T14:21:31Z</time>
      </trkpt>
      <trkpt lat="44.46583" lon="1.38954">
        <ele>190.52375219734</ele>
        <time>2017-12-11T14:21:40Z</time>
      </trkpt>
      <trkpt lat="44.46593" lon="1.38958">
        <ele>190.58671867033</ele>
        <time>2017-12-11T14:21:45Z</time>
      </trkpt>
      <trkpt lat="44.466" lon="1.38965">
        <ele>189.97934260401</ele>
        <time>2017-12-11T14:21:57Z</time>
      </trkpt>
      <trkpt lat="44.46608" lon="1.3897">
        <ele>188.89814679219</ele>
        <time>2017-12-11T14:22:10Z</time>
      </trkpt>
      <trkpt lat="44.46615" lon="1.38977">
        <ele>187.7208133232</ele>
        <time>2017-12-11T14:22:18Z</time>
      </trkpt>
      <trkpt lat="44.46623" lon="1.38981">
        <ele>187.20378434927</ele>
        <time>2017-12-11T14:22:25Z</time>
      </trkpt>
      <trkpt lat="44.46631" lon="1.38986">
        <ele>186.85130410468</ele>
        <time>2017-12-11T14:22:31Z</time>
      </trkpt>
      <trkpt lat="44.46638" lon="1.38992">
        <ele>186.47282027229</ele>
        <time>2017-12-11T14:22:39Z</time>
      </trkpt>
      <trkpt lat="44.46645" lon="1.38997">
        <ele>184.5488488029</ele>
        <time>2017-12-11T14:22:48Z</time>
      </trkpt>
      <trkpt lat="44.46652" lon="1.39003">
        <ele>181.89313685467</ele>
        <time>2017-12-11T14:22:59Z</time>
      </trkpt>
      <trkpt lat="44.46659" lon="1.39009">
        <ele>179.58456935772</ele>
        <time>2017-12-11T14:23:08Z</time>
      </trkpt>
      <trkpt lat="44.46665" lon="1.39013">
        <ele>177.54103857705</ele>
        <time>2017-12-11T14:23:20Z</time>
      </trkpt>
      <trkpt lat="44.46672" lon="1.3902">
        <ele>175.68193371475</ele>
        <time>2017-12-11T14:23:30Z</time>
      </trkpt>
      <trkpt lat="44.46678" lon="1.39025">
        <ele>174.54731895383</ele>
        <time>2017-12-11T14:23:35Z</time>
      </trkpt>
      <trkpt lat="44.46684" lon="1.39032">
        <ele>171.61325892759</ele>
        <time>2017-12-11T14:23:44Z</time>
      </trkpt>
      <trkpt lat="44.46691" lon="1.39039">
        <ele>169.45273245357</ele>
        <time>2017-12-11T14:23:50Z</time>
      </trkpt>
      <trkpt lat="44.46698" lon="1.39045">
        <ele>167.62131035552</ele>
        <time>2017-12-11T14:23:55Z</time>
      </trkpt>
      <trkpt lat="44.46706" lon="1.39052">
        <ele>164.92968049554</ele>
        <time>2017-12-11T14:24:03Z</time>
      </trkpt>
      <trkpt lat="44.46714" lon="1.39057">
        <ele>160.93464656588</ele>
        <time>2017-12-11T14:24:19Z</time>
      </trkpt>
      <trkpt lat="44.46719" lon="1.39064">
        <ele>159.94250452515</ele>
        <time>2017-12-11T14:24:28Z</time>
      </trkpt>
      <trkpt lat="44.46726" lon="1.39072">
        <ele>159.31810597375</ele>
        <time>2017-12-11T14:24:34Z</time>
      </trkpt>
      <trkpt lat="44.46732" lon="1.39079">
        <ele>158.21505831853</ele>
        <time>2017-12-11T14:24:42Z</time>
      </trkpt>
      <trkpt lat="44.46739" lon="1.39083">
        <ele>157.91700954222</ele>
        <time>2017-12-11T14:24:49Z</time>
      </trkpt>
      <trkpt lat="44.46747" lon="1.3909">
        <ele>158.55196229339</ele>
        <time>2017-12-11T14:24:57Z</time>
      </trkpt>
      <trkpt lat="44.46756" lon="1.39095">
        <ele>158.70830048981</ele>
        <time>2017-12-11T14:25:02Z</time>
      </trkpt>
      <trkpt lat="44.46764" lon="1.391">
        <ele>158.65804001305</ele>
        <time>2017-12-11T14:25:09Z</time>
      </trkpt>
      <trkpt lat="44.46772" lon="1.39104">
        <ele>158.19430653827</ele>
        <time>2017-12-11T14:25:25Z</time>
      </trkpt>
      <trkpt lat="44.4678" lon="1.3911">
        <ele>157.76069058618</ele>
        <time>2017-12-11T14:25:34Z</time>
      </trkpt>
      <trkpt lat="44.46786" lon="1.39118">
        <ele>155.38100873192</ele>
        <time>2017-12-11T14:25:48Z</time>
      </trkpt>
      <trkpt lat="44.46793" lon="1.39125">
        <ele>154.18344511403</ele>
        <time>2017-12-11T14:25:55Z</time>
      </trkpt>
      <trkpt lat="44.46799" lon="1.39134">
        <ele>152.41020694109</ele>
        <time>2017-12-11T14:26:03Z</time>
      </trkpt>
      <trkpt lat="44.46806" lon="1.39139">
        <ele>151.55199238364</ele>
        <time>2017-12-11T14:26:08Z</time>
      </trkpt>
      <trkpt lat="44.46814" lon="1.39144">
        <ele>150.96779269971</ele>
        <time>2017-12-11T14:26:14Z</time>
      </trkpt>
      <trkpt lat="44.46821" lon="1.39149">
        <ele>149.39305191607</ele>
        <time>2017-12-11T14:26:25Z</time>
      </trkpt>
      <trkpt lat="44.46829" lon="1.39155">
        <ele>148.43578911936</ele>
        <time>2017-12-11T14:26:30Z</time>
      </trkpt>
      <trkpt lat="44.46836" lon="1.3916">
        <ele>147.50983721685</ele>
        <time>2017-12-11T14:26:37Z</time>
      </trkpt>
      <trkpt lat="44.46844" lon="1.39167">
        <ele>145.93683365213</ele>
        <time>2017-12-11T14:26:44Z</time>
      </trkpt>
      <trkpt lat="44.46851" lon="1.39174">
        <ele>144.03316529644</ele>
        <time>2017-12-11T14:26:53Z</time>
      </trkpt>
      <trkpt lat="44.46859" lon="1.3918">
        <ele>142.50744105071</ele>
        <time>2017-12-11T14:27:02Z</time>
      </trkpt>
      <trkpt lat="44.46864" lon="1.3919">
        <ele>140.12409301497</ele>
        <time>2017-12-11T14:27:25Z</time>
      </trkpt>
      <trkpt lat="44.46864" lon="1.39201">
        <ele>144.07711972362</ele>
        <time>2017-12-11T14:31:46Z</time>
      </trkpt>
      <trkpt lat="44.4687" lon="1.39208">
        <ele>143.63537547067</ele>
        <time>2017-12-11T14:31:49Z</time>
      </trkpt>
      <trkpt lat="44.46878" lon="1.39211">
        <ele>143.15798085857</ele>
        <time>2017-12-11T14:31:55Z</time>
      </trkpt>
      <trkpt lat="44.46884" lon="1.39217">
        <ele>139.03716288806</ele>
        <time>2017-12-11T14:32:06Z</time>
      </trkpt>
      <trkpt lat="44.4689" lon="1.39225">
        <ele>137.75095890798</ele>
        <time>2017-12-11T14:32:14Z</time>
      </trkpt>
      <trkpt lat="44.46895" lon="1.39234">
        <ele>137.47722272174</ele>
        <time>2017-12-11T14:32:20Z</time>
      </trkpt>
      <trkpt lat="44.469" lon="1.39242">
        <ele>137.07716857141</ele>
        <time>2017-12-11T14:32:25Z</time>
      </trkpt>
      <trkpt lat="44.46904" lon="1.39251">
        <ele>136.82199936189</ele>
        <time>2017-12-11T14:32:31Z</time>
      </trkpt>
      <trkpt lat="44.46912" lon="1.39262">
        <ele>135.66936273849</ele>
        <time>2017-12-11T14:32:36Z</time>
      </trkpt>
      <trkpt lat="44.46916" lon="1.3927">
        <ele>134.19382029324</ele>
        <time>2017-12-11T14:32:43Z</time>
      </trkpt>
      <trkpt lat="44.46919" lon="1.39282">
        <ele>133.57932803669</ele>
        <time>2017-12-11T14:32:54Z</time>
      </trkpt>
      <trkpt lat="44.46922" lon="1.39293">
        <ele>133.76775595793</ele>
        <time>2017-12-11T14:32:59Z</time>
      </trkpt>
      <trkpt lat="44.46928" lon="1.39305">
        <ele>134.51529075575</ele>
        <time>2017-12-11T14:33:04Z</time>
      </trkpt>
      <trkpt lat="44.46932" lon="1.39315">
        <ele>135.45371906714</ele>
        <time>2017-12-11T14:33:10Z</time>
      </trkpt>
      <trkpt lat="44.46935" lon="1.39326">
        <ele>134.98768155202</ele>
        <time>2017-12-11T14:33:19Z</time>
      </trkpt>
      <trkpt lat="44.46939" lon="1.39336">
        <ele>133.77101174384</ele>
        <time>2017-12-11T14:33:26Z</time>
      </trkpt>
      <trkpt lat="44.46941" lon="1.39346">
        <ele>133.76897989933</ele>
        <time>2017-12-11T14:33:32Z</time>
      </trkpt>
      <trkpt lat="44.46942" lon="1.39356">
        <ele>134.03931591429</ele>
        <time>2017-12-11T14:33:37Z</time>
      </trkpt>
      <trkpt lat="44.46944" lon="1.39365">
        <ele>134.28762082794</ele>
        <time>2017-12-11T14:33:47Z</time>
      </trkpt>
      <trkpt lat="44.46948" lon="1.39373">
        <ele>134.75759223278</ele>
        <time>2017-12-11T14:33:56Z</time>
      </trkpt>
      <trkpt lat="44.46956" lon="1.39379">
        <ele>134.72548304443</ele>
        <time>2017-12-11T14:34:00Z</time>
      </trkpt>
      <trkpt lat="44.46964" lon="1.39382">
        <ele>134.90551353172</ele>
        <time>2017-12-11T14:34:12Z</time>
      </trkpt>
      <trkpt lat="44.46971" lon="1.39386">
        <ele>135.1817991853</ele>
        <time>2017-12-11T14:34:17Z</time>
      </trkpt>
      <trkpt lat="44.46979" lon="1.39392">
        <ele>135.49188050376</ele>
        <time>2017-12-11T14:34:27Z</time>
      </trkpt>
      <trkpt lat="44.46987" lon="1.39397">
        <ele>135.07313218936</ele>
        <time>2017-12-11T14:34:31Z</time>
      </trkpt>
      <trkpt lat="44.46996" lon="1.39399">
        <ele>135.26719500704</ele>
        <time>2017-12-11T14:34:38Z</time>
      </trkpt>
      <trkpt lat="44.47005" lon="1.39401">
        <ele>135.30552457717</ele>
        <time>2017-12-11T14:34:43Z</time>
      </trkpt>
      <trkpt lat="44.47014" lon="1.39403">
        <ele>135.11241010474</ele>
        <time>2017-12-11T14:34:49Z</time>
      </trkpt>
      <trkpt lat="44.47022" lon="1.39405">
        <ele>135.60675828047</ele>
        <time>2017-12-11T14:34:56Z</time>
      </trkpt>
      <trkpt lat="44.4703" lon="1.39408">
        <ele>135.30725262693</ele>
        <time>2017-12-11T14:35:03Z</time>
      </trkpt>
      <trkpt lat="44.47038" lon="1.39409">
        <ele>135.20364997073</ele>
        <time>2017-12-11T14:35:10Z</time>
      </trkpt>
      <trkpt lat="44.47046" lon="1.39411">
        <ele>135.5608899729</ele>
        <time>2017-12-11T14:35:19Z</time>
      </trkpt>
      <trkpt lat="44.47055" lon="1.39411">
        <ele>135.88787742313</ele>
        <time>2017-12-11T14:35:25Z</time>
      </trkpt>
      <trkpt lat="44.47062" lon="1.39414">
        <ele>135.57193188229</ele>
        <time>2017-12-11T14:35:31Z</time>
      </trkpt>
      <trkpt lat="44.47073" lon="1.39413">
        <ele>135.13214825676</ele>
        <time>2017-12-11T14:35:35Z</time>
      </trkpt>
      <trkpt lat="44.47079" lon="1.39414">
        <ele>134.93042448167</ele>
        <time>2017-12-11T14:35:45Z</time>
      </trkpt>
      <trkpt lat="44.47092" lon="1.39418">
        <ele>135.07361150103</ele>
        <time>2017-12-11T14:35:50Z</time>
      </trkpt>
      <trkpt lat="44.47101" lon="1.3942">
        <ele>135.12114384302</ele>
        <time>2017-12-11T14:36:00Z</time>
      </trkpt>
      <trkpt lat="44.47109" lon="1.39422">
        <ele>134.59570838977</ele>
        <time>2017-12-11T14:36:06Z</time>
      </trkpt>
      <trkpt lat="44.47119" lon="1.39426">
        <ele>133.82219710605</ele>
        <time>2017-12-11T14:36:11Z</time>
      </trkpt>
      <trkpt lat="44.47128" lon="1.39429">
        <ele>132.77299631919</ele>
        <time>2017-12-11T14:36:16Z</time>
      </trkpt>
      <trkpt lat="44.47136" lon="1.39433">
        <ele>130.86145269123</ele>
        <time>2017-12-11T14:36:23Z</time>
      </trkpt>
      <trkpt lat="44.47141" lon="1.39437">
        <ele>130.50584116903</ele>
        <time>2017-12-11T14:36:28Z</time>
      </trkpt>
      <trkpt lat="44.47149" lon="1.39442">
        <ele>130.42613523412</ele>
        <time>2017-12-11T14:36:33Z</time>
      </trkpt>
      <trkpt lat="44.47155" lon="1.39449">
        <ele>129.60538772848</ele>
        <time>2017-12-11T14:36:41Z</time>
      </trkpt>
      <trkpt lat="44.47161" lon="1.39456">
        <ele>129.11152044885</ele>
        <time>2017-12-11T14:36:47Z</time>
      </trkpt>
      <trkpt lat="44.47167" lon="1.39465">
        <ele>128.26774465561</ele>
        <time>2017-12-11T14:36:56Z</time>
      </trkpt>
      <trkpt lat="44.47172" lon="1.39471">
        <ele>128.75366860983</ele>
        <time>2017-12-11T14:37:01Z</time>
      </trkpt>
      <trkpt lat="44.4718" lon="1.39477">
        <ele>128.97390578787</ele>
        <time>2017-12-11T14:37:05Z</time>
      </trkpt>
      <trkpt lat="44.47186" lon="1.39484">
        <ele>130.40671921686</ele>
        <time>2017-12-11T14:37:17Z</time>
      </trkpt>
      <trkpt lat="44.47192" lon="1.3949">
        <ele>130.75922270327</ele>
        <time>2017-12-11T14:37:23Z</time>
      </trkpt>
      <trkpt lat="44.47198" lon="1.39499">
        <ele>131.26664296491</ele>
        <time>2017-12-11T14:37:31Z</time>
      </trkpt>
      <trkpt lat="44.47205" lon="1.39506">
        <ele>132.17631082517</ele>
        <time>2017-12-11T14:37:37Z</time>
      </trkpt>
      <trkpt lat="44.47211" lon="1.39513">
        <ele>132.82247321605</ele>
        <time>2017-12-11T14:37:42Z</time>
      </trkpt>
      <trkpt lat="44.47219" lon="1.39522">
        <ele>132.67753727959</ele>
        <time>2017-12-11T14:37:47Z</time>
      </trkpt>
      <trkpt lat="44.47225" lon="1.39528">
        <ele>133.28015004145</ele>
        <time>2017-12-11T14:37:56Z</time>
      </trkpt>
      <trkpt lat="44.47231" lon="1.39537">
        <ele>133.78486680972</ele>
        <time>2017-12-11T14:38:04Z</time>
      </trkpt>
      <trkpt lat="44.47238" lon="1.39545">
        <ele>133.73046219322</ele>
        <time>2017-12-11T14:38:13Z</time>
      </trkpt>
      <trkpt lat="44.47245" lon="1.3955">
        <ele>131.99507011605</ele>
        <time>2017-12-11T14:38:20Z</time>
      </trkpt>
      <trkpt lat="44.47237" lon="1.39552">
        <ele>126.12469872207</ele>
        <time>2017-12-11T14:39:17Z</time>
      </trkpt>
      <trkpt lat="44.47228" lon="1.39553">
        <ele>125.82220305265</ele>
        <time>2017-12-11T14:39:40Z</time>
      </trkpt>
      <trkpt lat="44.47221" lon="1.39559">
        <ele>127.67274538565</ele>
        <time>2017-12-11T14:39:50Z</time>
      </trkpt>
      <trkpt lat="44.47212" lon="1.3956">
        <ele>130.11413923113</ele>
        <time>2017-12-11T14:40:07Z</time>
      </trkpt>
      <trkpt lat="44.47204" lon="1.3956">
        <ele>131.58029758043</ele>
        <time>2017-12-11T14:40:20Z</time>
      </trkpt>
      <trkpt lat="44.47196" lon="1.39562">
        <ele>132.49247574294</ele>
        <time>2017-12-11T14:40:26Z</time>
      </trkpt>
      <trkpt lat="44.47188" lon="1.39561">
        <ele>132.84906350953</ele>
        <time>2017-12-11T14:40:34Z</time>
      </trkpt>
      <trkpt lat="44.47179" lon="1.39561">
        <ele>133.73023808082</ele>
        <time>2017-12-11T14:40:46Z</time>
      </trkpt>
      <trkpt lat="44.47171" lon="1.39563">
        <ele>135.56521282245</ele>
        <time>2017-12-11T14:40:59Z</time>
      </trkpt>
      <trkpt lat="44.47163" lon="1.39562">
        <ele>136.82613619156</ele>
        <time>2017-12-11T14:41:09Z</time>
      </trkpt>
      <trkpt lat="44.47154" lon="1.3956">
        <ele>140.65058736066</ele>
        <time>2017-12-11T14:41:35Z</time>
      </trkpt>
      <trkpt lat="44.47146" lon="1.39566">
        <ele>142.3446106024</ele>
        <time>2017-12-11T14:41:49Z</time>
      </trkpt>
      <trkpt lat="44.47138" lon="1.39571">
        <ele>142.58034680425</ele>
        <time>2017-12-11T14:41:58Z</time>
      </trkpt>
      <trkpt lat="44.47129" lon="1.3957">
        <ele>142.57354023986</ele>
        <time>2017-12-11T14:42:08Z</time>
      </trkpt>
      <trkpt lat="44.47121" lon="1.39566">
        <ele>143.141531572</ele>
        <time>2017-12-11T14:42:19Z</time>
      </trkpt>
      <trkpt lat="44.47113" lon="1.39562">
        <ele>144.04975530581</ele>
        <time>2017-12-11T14:42:27Z</time>
      </trkpt>
      <trkpt lat="44.47106" lon="1.39556">
        <ele>144.80237005166</ele>
        <time>2017-12-11T14:42:35Z</time>
      </trkpt>
      <trkpt lat="44.47098" lon="1.39559">
        <ele>146.30936707177</ele>
        <time>2017-12-11T14:42:45Z</time>
      </trkpt>
      <trkpt lat="44.4709" lon="1.3956">
        <ele>147.57879454551</ele>
        <time>2017-12-11T14:43:00Z</time>
      </trkpt>
      <trkpt lat="44.47081" lon="1.3956">
        <ele>148.84588991857</ele>
        <time>2017-12-11T14:43:11Z</time>
      </trkpt>
      <trkpt lat="44.47072" lon="1.39557">
        <ele>149.44101434595</ele>
        <time>2017-12-11T14:43:18Z</time>
      </trkpt>
      <trkpt lat="44.47064" lon="1.3956">
        <ele>152.14045491595</ele>
        <time>2017-12-11T14:43:32Z</time>
      </trkpt>
      <trkpt lat="44.47056" lon="1.39561">
        <ele>153.80118090601</ele>
        <time>2017-12-11T14:43:42Z</time>
      </trkpt>
      <trkpt lat="44.47048" lon="1.39558">
        <ele>155.22263913076</ele>
        <time>2017-12-11T14:43:49Z</time>
      </trkpt>
      <trkpt lat="44.47039" lon="1.39557">
        <ele>157.54817985877</ele>
        <time>2017-12-11T14:44:04Z</time>
      </trkpt>
      <trkpt lat="44.4703" lon="1.39556">
        <ele>161.08777958499</ele>
        <time>2017-12-11T14:44:27Z</time>
      </trkpt>
      <trkpt lat="44.47025" lon="1.39548">
        <ele>162.30655127592</ele>
        <time>2017-12-11T14:44:36Z</time>
      </trkpt>
      <trkpt lat="44.47016" lon="1.39548">
        <ele>164.01058849534</ele>
        <time>2017-12-11T14:44:51Z</time>
      </trkpt>
      <trkpt lat="44.47007" lon="1.39547">
        <ele>165.25723703415</ele>
        <time>2017-12-11T14:45:03Z</time>
      </trkpt>
      <trkpt lat="44.46999" lon="1.39548">
        <ele>166.55965691115</ele>
        <time>2017-12-11T14:45:13Z</time>
      </trkpt>
      <trkpt lat="44.4699" lon="1.39547">
        <ele>166.87653748591</ele>
        <time>2017-12-11T14:45:20Z</time>
      </trkpt>
      <trkpt lat="44.46982" lon="1.39545">
        <ele>167.56965802165</ele>
        <time>2017-12-11T14:45:29Z</time>
      </trkpt>
      <trkpt lat="44.46974" lon="1.3955">
        <ele>169.44307363499</ele>
        <time>2017-12-11T14:45:39Z</time>
      </trkpt>
      <trkpt lat="44.46965" lon="1.39553">
        <ele>172.36628192247</ele>
        <time>2017-12-11T14:45:56Z</time>
      </trkpt>
      <trkpt lat="44.46957" lon="1.39557">
        <ele>174.41098840024</ele>
        <time>2017-12-11T14:46:06Z</time>
      </trkpt>
      <trkpt lat="44.4695" lon="1.39552">
        <ele>175.4750543544</ele>
        <time>2017-12-11T14:46:19Z</time>
      </trkpt>
      <trkpt lat="44.46942" lon="1.39547">
        <ele>176.00399595064</ele>
        <time>2017-12-11T14:46:29Z</time>
      </trkpt>
      <trkpt lat="44.46935" lon="1.39551">
        <ele>177.26812402341</ele>
        <time>2017-12-11T14:46:40Z</time>
      </trkpt>
      <trkpt lat="44.46926" lon="1.39556">
        <ele>178.78674124246</ele>
        <time>2017-12-11T14:46:59Z</time>
      </trkpt>
      <trkpt lat="44.46919" lon="1.39562">
        <ele>179.47617144168</ele>
        <time>2017-12-11T14:47:09Z</time>
      </trkpt>
      <trkpt lat="44.46913" lon="1.39571">
        <ele>179.44405978005</ele>
        <time>2017-12-11T14:47:17Z</time>
      </trkpt>
      <trkpt lat="44.46908" lon="1.3958">
        <ele>179.99510294195</ele>
        <time>2017-12-11T14:47:24Z</time>
      </trkpt>
      <trkpt lat="44.469" lon="1.39582">
        <ele>180.74492521219</ele>
        <time>2017-12-11T14:47:32Z</time>
      </trkpt>
      <trkpt lat="44.46892" lon="1.39583">
        <ele>180.86100724864</ele>
        <time>2017-12-11T14:47:40Z</time>
      </trkpt>
      <trkpt lat="44.46883" lon="1.39581">
        <ele>182.0360006291</ele>
        <time>2017-12-11T14:47:49Z</time>
      </trkpt>
      <trkpt lat="44.46874" lon="1.39579">
        <ele>182.80088585801</ele>
        <time>2017-12-11T14:47:57Z</time>
      </trkpt>
      <trkpt lat="44.46866" lon="1.39582">
        <ele>183.90384071392</ele>
        <time>2017-12-11T14:48:06Z</time>
      </trkpt>
      <trkpt lat="44.46859" lon="1.39589">
        <ele>185.58232544284</ele>
        <time>2017-12-11T14:48:14Z</time>
      </trkpt>
      <trkpt lat="44.46851" lon="1.39594">
        <ele>186.95011777471</ele>
        <time>2017-12-11T14:48:23Z</time>
      </trkpt>
      <trkpt lat="44.46843" lon="1.39593">
        <ele>187.31503517721</ele>
        <time>2017-12-11T14:48:31Z</time>
      </trkpt>
      <trkpt lat="44.46835" lon="1.39591">
        <ele>187.86323181083</ele>
        <time>2017-12-11T14:48:40Z</time>
      </trkpt>
      <trkpt lat="44.46827" lon="1.39587">
        <ele>188.72274857702</ele>
        <time>2017-12-11T14:48:50Z</time>
      </trkpt>
      <trkpt lat="44.46819" lon="1.39586">
        <ele>189.43393576297</ele>
        <time>2017-12-11T14:48:59Z</time>
      </trkpt>
      <trkpt lat="44.46811" lon="1.39591">
        <ele>190.23623397105</ele>
        <time>2017-12-11T14:49:07Z</time>
      </trkpt>
      <trkpt lat="44.46803" lon="1.39593">
        <ele>190.6656221099</ele>
        <time>2017-12-11T14:49:19Z</time>
      </trkpt>
      <trkpt lat="44.46795" lon="1.39599">
        <ele>190.58730661695</ele>
        <time>2017-12-11T14:49:27Z</time>
      </trkpt>
      <trkpt lat="44.46786" lon="1.39601">
        <ele>190.88747672688</ele>
        <time>2017-12-11T14:49:35Z</time>
      </trkpt>
      <trkpt lat="44.46778" lon="1.39601">
        <ele>192.52746793701</ele>
        <time>2017-12-11T14:49:44Z</time>
      </trkpt>
      <trkpt lat="44.46769" lon="1.39605">
        <ele>194.38645378329</ele>
        <time>2017-12-11T14:49:51Z</time>
      </trkpt>
      <trkpt lat="44.46762" lon="1.39602">
        <ele>196.28709150235</ele>
        <time>2017-12-11T14:50:00Z</time>
      </trkpt>
      <trkpt lat="44.46753" lon="1.39602">
        <ele>198.65633786845</ele>
        <time>2017-12-11T14:50:16Z</time>
      </trkpt>
      <trkpt lat="44.46745" lon="1.396">
        <ele>200.9271778694</ele>
        <time>2017-12-11T14:50:26Z</time>
      </trkpt>
      <trkpt lat="44.46736" lon="1.39598">
        <ele>201.85289752444</ele>
        <time>2017-12-11T14:50:34Z</time>
      </trkpt>
      <trkpt lat="44.46728" lon="1.39599">
        <ele>202.60249079182</ele>
        <time>2017-12-11T14:50:46Z</time>
      </trkpt>
      <trkpt lat="44.46723" lon="1.39589">
        <ele>202.44241905884</ele>
        <time>2017-12-11T14:50:57Z</time>
      </trkpt>
      <trkpt lat="44.46714" lon="1.3959">
        <ele>203.48365552463</ele>
        <time>2017-12-11T14:51:07Z</time>
      </trkpt>
      <trkpt lat="44.46709" lon="1.39599">
        <ele>204.50588377613</ele>
        <time>2017-12-11T14:51:18Z</time>
      </trkpt>
      <trkpt lat="44.467" lon="1.39602">
        <ele>205.37746055613</ele>
        <time>2017-12-11T14:51:29Z</time>
      </trkpt>
      <trkpt lat="44.46691" lon="1.39602">
        <ele>206.51615204554</ele>
        <time>2017-12-11T14:51:40Z</time>
      </trkpt>
      <trkpt lat="44.46683" lon="1.39605">
        <ele>206.461607665</ele>
        <time>2017-12-11T14:51:47Z</time>
      </trkpt>
      <trkpt lat="44.46674" lon="1.39602">
        <ele>206.19722155071</ele>
        <time>2017-12-11T14:51:56Z</time>
      </trkpt>
      <trkpt lat="44.46666" lon="1.39604">
        <ele>206.43762307829</ele>
        <time>2017-12-11T14:52:03Z</time>
      </trkpt>
      <trkpt lat="44.46658" lon="1.39607">
        <ele>206.85272245459</ele>
        <time>2017-12-11T14:52:11Z</time>
      </trkpt>
      <trkpt lat="44.4665" lon="1.39607">
        <ele>207.59107348887</ele>
        <time>2017-12-11T14:52:19Z</time>
      </trkpt>
      <trkpt lat="44.46642" lon="1.39612">
        <ele>207.88764894661</ele>
        <time>2017-12-11T14:52:27Z</time>
      </trkpt>
      <trkpt lat="44.46635" lon="1.39616">
        <ele>208.14385447321</ele>
        <time>2017-12-11T14:52:39Z</time>
      </trkpt>
      <trkpt lat="44.46627" lon="1.39622">
        <ele>207.99056708217</ele>
        <time>2017-12-11T14:52:48Z</time>
      </trkpt>
      <trkpt lat="44.4662" lon="1.39626">
        <ele>208.0942944598</ele>
        <time>2017-12-11T14:52:55Z</time>
      </trkpt>
      <trkpt lat="44.46613" lon="1.39631">
        <ele>208.01142290805</ele>
        <time>2017-12-11T14:53:00Z</time>
      </trkpt>
      <trkpt lat="44.46605" lon="1.39637">
        <ele>207.92321300271</ele>
        <time>2017-12-11T14:53:07Z</time>
      </trkpt>
      <trkpt lat="44.46598" lon="1.39642">
        <ele>208.01722044761</ele>
        <time>2017-12-11T14:53:15Z</time>
      </trkpt>
      <trkpt lat="44.4659" lon="1.39645">
        <ele>208.41722260421</ele>
        <time>2017-12-11T14:53:22Z</time>
      </trkpt>
      <trkpt lat="44.46581" lon="1.39645">
        <ele>209.10750463536</ele>
        <time>2017-12-11T14:53:31Z</time>
      </trkpt>
      <trkpt lat="44.46578" lon="1.39633">
        <ele>213.00447119773</ele>
        <time>2017-12-11T14:54:12Z</time>
      </trkpt>
      <trkpt lat="44.46579" lon="1.39645">
        <ele>219.48655938988</ele>
        <time>2017-12-11T14:55:00Z</time>
      </trkpt>
      <trkpt lat="44.46588" lon="1.39644">
        <ele>219.47037101745</ele>
        <time>2017-12-11T14:55:21Z</time>
      </trkpt>
      <trkpt lat="44.46582" lon="1.39636">
        <ele>217.32839094031</ele>
        <time>2017-12-11T14:55:50Z</time>
      </trkpt>
      <trkpt lat="44.46576" lon="1.39644">
        <ele>218.85323171151</ele>
        <time>2017-12-11T14:56:19Z</time>
      </trkpt>
      <trkpt lat="44.46567" lon="1.39645">
        <ele>220.99104477027</ele>
        <time>2017-12-11T14:56:43Z</time>
      </trkpt>
      <trkpt lat="44.46567" lon="1.39657">
        <ele>227.99807332918</ele>
        <time>2017-12-11T14:59:54Z</time>
      </trkpt>
      <trkpt lat="44.46574" lon="1.3965">
        <ele>228.07095468119</ele>
        <time>2017-12-11T15:01:09Z</time>
      </trkpt>
      <trkpt lat="44.46568" lon="1.39658">
        <ele>228.64433485467</ele>
        <time>2017-12-11T15:02:05Z</time>
      </trkpt>
      <trkpt lat="44.46559" lon="1.39659">
        <ele>228.94662172508</ele>
        <time>2017-12-11T15:02:22Z</time>
      </trkpt>
      <trkpt lat="44.46551" lon="1.39662">
        <ele>227.61821515254</ele>
        <time>2017-12-11T15:02:33Z</time>
      </trkpt>
      <trkpt lat="44.46543" lon="1.39667">
        <ele>226.43451501293</ele>
        <time>2017-12-11T15:02:43Z</time>
      </trkpt>
      <trkpt lat="44.46535" lon="1.3967">
        <ele>225.34169514862</ele>
        <time>2017-12-11T15:02:51Z</time>
      </trkpt>
      <trkpt lat="44.46528" lon="1.39676">
        <ele>223.97836331112</ele>
        <time>2017-12-11T15:02:59Z</time>
      </trkpt>
      <trkpt lat="44.4652" lon="1.3968">
        <ele>222.52384443773</ele>
        <time>2017-12-11T15:03:09Z</time>
      </trkpt>
      <trkpt lat="44.46511" lon="1.39682">
        <ele>221.46064594305</ele>
        <time>2017-12-11T15:03:17Z</time>
      </trkpt>
      <trkpt lat="44.46503" lon="1.39683">
        <ele>220.79229820383</ele>
        <time>2017-12-11T15:03:24Z</time>
      </trkpt>
      <trkpt lat="44.46494" lon="1.39682">
        <ele>220.01912249184</ele>
        <time>2017-12-11T15:03:34Z</time>
      </trkpt>
      <trkpt lat="44.46487" lon="1.39682">
        <ele>219.96355372916</ele>
        <time>2017-12-11T15:03:41Z</time>
      </trkpt>
      <trkpt lat="44.46478" lon="1.3968">
        <ele>219.52889802822</ele>
        <time>2017-12-11T15:03:49Z</time>
      </trkpt>
      <trkpt lat="44.4647" lon="1.39676">
        <ele>219.12081907165</ele>
        <time>2017-12-11T15:03:58Z</time>
      </trkpt>
      <trkpt lat="44.46461" lon="1.39677">
        <ele>218.80411292352</ele>
        <time>2017-12-11T15:04:09Z</time>
      </trkpt>
      <trkpt lat="44.46452" lon="1.39677">
        <ele>219.20152418994</ele>
        <time>2017-12-11T15:04:14Z</time>
      </trkpt>
      <trkpt lat="44.46444" lon="1.39679">
        <ele>219.94943166611</ele>
        <time>2017-12-11T15:04:21Z</time>
      </trkpt>
      <trkpt lat="44.46436" lon="1.3968">
        <ele>220.98479147763</ele>
        <time>2017-12-11T15:04:28Z</time>
      </trkpt>
      <trkpt lat="44.46429" lon="1.39683">
        <ele>222.4521779509</ele>
        <time>2017-12-11T15:04:38Z</time>
      </trkpt>
      <trkpt lat="44.46421" lon="1.39684">
        <ele>223.25819768309</ele>
        <time>2017-12-11T15:04:45Z</time>
      </trkpt>
      <trkpt lat="44.46412" lon="1.39685">
        <ele>223.78591515568</ele>
        <time>2017-12-11T15:04:56Z</time>
      </trkpt>
      <trkpt lat="44.46403" lon="1.39685">
        <ele>224.57705599314</ele>
        <time>2017-12-11T15:05:04Z</time>
      </trkpt>
      <trkpt lat="44.46395" lon="1.39686">
        <ele>225.66178443699</ele>
        <time>2017-12-11T15:05:10Z</time>
      </trkpt>
      <trkpt lat="44.46387" lon="1.39687">
        <ele>226.7713609236</ele>
        <time>2017-12-11T15:05:19Z</time>
      </trkpt>
      <trkpt lat="44.46379" lon="1.39687">
        <ele>228.87780066024</ele>
        <time>2017-12-11T15:05:33Z</time>
      </trkpt>
      <trkpt lat="44.46371" lon="1.39693">
        <ele>233.59949602353</ele>
        <time>2017-12-11T15:06:07Z</time>
      </trkpt>
      <trkpt lat="44.46365" lon="1.39701">
        <ele>235.24057742647</ele>
        <time>2017-12-11T15:06:24Z</time>
      </trkpt>
      <trkpt lat="44.46356" lon="1.39705">
        <ele>235.90187724141</ele>
        <time>2017-12-11T15:06:35Z</time>
      </trkpt>
      <trkpt lat="44.46348" lon="1.39707">
        <ele>236.42759775602</ele>
        <time>2017-12-11T15:06:45Z</time>
      </trkpt>
      <trkpt lat="44.4634" lon="1.39711">
        <ele>237.42205385185</ele>
        <time>2017-12-11T15:06:54Z</time>
      </trkpt>
      <trkpt lat="44.46335" lon="1.39719">
        <ele>238.9248708585</ele>
        <time>2017-12-11T15:07:02Z</time>
      </trkpt>
      <trkpt lat="44.4633" lon="1.3973">
        <ele>239.9086974113</ele>
        <time>2017-12-11T15:07:08Z</time>
      </trkpt>
      <trkpt lat="44.46324" lon="1.39737">
        <ele>241.45332472691</ele>
        <time>2017-12-11T15:07:16Z</time>
      </trkpt>
      <trkpt lat="44.4632" lon="1.39747">
        <ele>242.57548714316</ele>
        <time>2017-12-11T15:07:28Z</time>
      </trkpt>
      <trkpt lat="44.46314" lon="1.39757">
        <ele>242.45128143194</ele>
        <time>2017-12-11T15:07:39Z</time>
      </trkpt>
      <trkpt lat="44.46306" lon="1.39762">
        <ele>242.87433722862</ele>
        <time>2017-12-11T15:07:49Z</time>
      </trkpt>
      <trkpt lat="44.46298" lon="1.39768">
        <ele>244.01210854991</ele>
        <time>2017-12-11T15:08:00Z</time>
      </trkpt>
      <trkpt lat="44.46292" lon="1.39773">
        <ele>244.72135812951</ele>
        <time>2017-12-11T15:08:05Z</time>
      </trkpt>
      <trkpt lat="44.46284" lon="1.39776">
        <ele>244.93634715692</ele>
        <time>2017-12-11T15:08:12Z</time>
      </trkpt>
      <trkpt lat="44.46277" lon="1.39783">
        <ele>245.87696184217</ele>
        <time>2017-12-11T15:08:23Z</time>
      </trkpt>
      <trkpt lat="44.46273" lon="1.39792">
        <ele>246.25567444764</ele>
        <time>2017-12-11T15:08:28Z</time>
      </trkpt>
      <trkpt lat="44.46269" lon="1.39803">
        <ele>247.31076006021</ele>
        <time>2017-12-11T15:08:35Z</time>
      </trkpt>
      <trkpt lat="44.46261" lon="1.39807">
        <ele>248.52660389569</ele>
        <time>2017-12-11T15:08:45Z</time>
      </trkpt>
      <trkpt lat="44.46255" lon="1.39815">
        <ele>249.43182349464</ele>
        <time>2017-12-11T15:08:53Z</time>
      </trkpt>
      <trkpt lat="44.46248" lon="1.39821">
        <ele>250.63311442847</ele>
        <time>2017-12-11T15:09:04Z</time>
      </trkpt>
      <trkpt lat="44.46243" lon="1.3983">
        <ele>251.40926911011</ele>
        <time>2017-12-11T15:09:11Z</time>
      </trkpt>
      <trkpt lat="44.46236" lon="1.39838">
        <ele>252.73590571038</ele>
        <time>2017-12-11T15:09:20Z</time>
      </trkpt>
      <trkpt lat="44.46228" lon="1.39839">
        <ele>253.38378602987</ele>
        <time>2017-12-11T15:09:39Z</time>
      </trkpt>
      <trkpt lat="44.46224" lon="1.39851">
        <ele>254.39142118365</ele>
        <time>2017-12-11T15:09:48Z</time>
      </trkpt>
      <trkpt lat="44.46218" lon="1.39858">
        <ele>255.2211669359</ele>
        <time>2017-12-11T15:09:58Z</time>
      </trkpt>
      <trkpt lat="44.46212" lon="1.39866">
        <ele>255.23025787546</ele>
        <time>2017-12-11T15:10:04Z</time>
      </trkpt>
      <trkpt lat="44.46206" lon="1.39875">
        <ele>255.44182285889</ele>
        <time>2017-12-11T15:10:12Z</time>
      </trkpt>
      <trkpt lat="44.46207" lon="1.39887">
        <ele>255.84328778096</ele>
        <time>2017-12-11T15:10:22Z</time>
      </trkpt>
      <trkpt lat="44.46202" lon="1.39897">
        <ele>256.60217377719</ele>
        <time>2017-12-11T15:10:31Z</time>
      </trkpt>
      <trkpt lat="44.462" lon="1.39908">
        <ele>257.35166273823</ele>
        <time>2017-12-11T15:10:38Z</time>
      </trkpt>
      <trkpt lat="44.46195" lon="1.39919">
        <ele>257.92442070553</ele>
        <time>2017-12-11T15:10:47Z</time>
      </trkpt>
      <trkpt lat="44.4619" lon="1.39928">
        <ele>257.64870024834</ele>
        <time>2017-12-11T15:10:55Z</time>
      </trkpt>
      <trkpt lat="44.46183" lon="1.39934">
        <ele>257.22925871814</ele>
        <time>2017-12-11T15:11:03Z</time>
      </trkpt>
      <trkpt lat="44.46176" lon="1.3994">
        <ele>256.8907989796</ele>
        <time>2017-12-11T15:11:11Z</time>
      </trkpt>
      <trkpt lat="44.4617" lon="1.39948">
        <ele>256.72831389464</ele>
        <time>2017-12-11T15:11:17Z</time>
      </trkpt>
      <trkpt lat="44.46166" lon="1.39957">
        <ele>256.25838043114</ele>
        <time>2017-12-11T15:11:24Z</time>
      </trkpt>
      <trkpt lat="44.46161" lon="1.39967">
        <ele>256.69360090362</ele>
        <time>2017-12-11T15:11:32Z</time>
      </trkpt>
      <trkpt lat="44.46154" lon="1.39973">
        <ele>256.87646891635</ele>
        <time>2017-12-11T15:11:39Z</time>
      </trkpt>
      <trkpt lat="44.46149" lon="1.39981">
        <ele>257.03178005144</ele>
        <time>2017-12-11T15:11:45Z</time>
      </trkpt>
      <trkpt lat="44.46145" lon="1.3999">
        <ele>256.68504462171</ele>
        <time>2017-12-11T15:11:51Z</time>
      </trkpt>
      <trkpt lat="44.46138" lon="1.39996">
        <ele>256.9076626433</ele>
        <time>2017-12-11T15:11:58Z</time>
      </trkpt>
      <trkpt lat="44.46133" lon="1.40005">
        <ele>257.1131950902</ele>
        <time>2017-12-11T15:12:05Z</time>
      </trkpt>
      <trkpt lat="44.46127" lon="1.40015">
        <ele>257.68075569787</ele>
        <time>2017-12-11T15:12:15Z</time>
      </trkpt>
      <trkpt lat="44.46122" lon="1.40025">
        <ele>257.11096244376</ele>
        <time>2017-12-11T15:12:24Z</time>
      </trkpt>
      <trkpt lat="44.46118" lon="1.40035">
        <ele>256.79704274099</ele>
        <time>2017-12-11T15:12:33Z</time>
      </trkpt>
      <trkpt lat="44.4611" lon="1.40039">
        <ele>255.68616374276</ele>
        <time>2017-12-11T15:12:45Z</time>
      </trkpt>
      <trkpt lat="44.46104" lon="1.40043">
        <ele>255.73457877908</ele>
        <time>2017-12-11T15:12:51Z</time>
      </trkpt>
      <trkpt lat="44.46097" lon="1.40051">
        <ele>255.81690112537</ele>
        <time>2017-12-11T15:12:56Z</time>
      </trkpt>
      <trkpt lat="44.46091" lon="1.4006">
        <ele>255.65243354919</ele>
        <time>2017-12-11T15:13:04Z</time>
      </trkpt>
      <trkpt lat="44.46083" lon="1.40066">
        <ele>255.89494552346</ele>
        <time>2017-12-11T15:13:12Z</time>
      </trkpt>
      <trkpt lat="44.46076" lon="1.40072">
        <ele>255.26698908858</ele>
        <time>2017-12-11T15:13:18Z</time>
      </trkpt>
      <trkpt lat="44.46069" lon="1.40079">
        <ele>253.95578414043</ele>
        <time>2017-12-11T15:13:28Z</time>
      </trkpt>
      <trkpt lat="44.46061" lon="1.40087">
        <ele>252.52196799167</ele>
        <time>2017-12-11T15:13:40Z</time>
      </trkpt>
      <trkpt lat="44.46054" lon="1.40091">
        <ele>254.1612273508</ele>
        <time>2017-12-11T15:14:58Z</time>
      </trkpt>
      <trkpt lat="44.46046" lon="1.4009">
        <ele>254.21187988736</ele>
        <time>2017-12-11T15:15:06Z</time>
      </trkpt>
      <trkpt lat="44.46039" lon="1.40089">
        <ele>254.26809504753</ele>
        <time>2017-12-11T15:15:12Z</time>
      </trkpt>
      <trkpt lat="44.46031" lon="1.40086">
        <ele>254.23663252233</ele>
        <time>2017-12-11T15:15:18Z</time>
      </trkpt>
      <trkpt lat="44.46023" lon="1.40086">
        <ele>253.41022275919</ele>
        <time>2017-12-11T15:15:24Z</time>
      </trkpt>
      <trkpt lat="44.46015" lon="1.40086">
        <ele>253.32350862581</ele>
        <time>2017-12-11T15:15:31Z</time>
      </trkpt>
      <trkpt lat="44.46006" lon="1.40084">
        <ele>253.38972383947</ele>
        <time>2017-12-11T15:15:38Z</time>
      </trkpt>
      <trkpt lat="44.45998" lon="1.40081">
        <ele>253.62598432958</ele>
        <time>2017-12-11T15:15:48Z</time>
      </trkpt>
      <trkpt lat="44.45991" lon="1.40078">
        <ele>253.3835704147</ele>
        <time>2017-12-11T15:15:55Z</time>
      </trkpt>
      <trkpt lat="44.45982" lon="1.40076">
        <ele>253.56882487129</ele>
        <time>2017-12-11T15:16:01Z</time>
      </trkpt>
      <trkpt lat="44.45974" lon="1.40073">
        <ele>253.53079337922</ele>
        <time>2017-12-11T15:16:10Z</time>
      </trkpt>
      <trkpt lat="44.45966" lon="1.4007">
        <ele>253.65220394814</ele>
        <time>2017-12-11T15:16:16Z</time>
      </trkpt>
      <trkpt lat="44.45957" lon="1.40068">
        <ele>254.41993156327</ele>
        <time>2017-12-11T15:16:24Z</time>
      </trkpt>
      <trkpt lat="44.45948" lon="1.40069">
        <ele>254.76707655485</ele>
        <time>2017-12-11T15:16:32Z</time>
      </trkpt>
      <trkpt lat="44.4594" lon="1.40068">
        <ele>254.82209562457</ele>
        <time>2017-12-11T15:16:40Z</time>
      </trkpt>
      <trkpt lat="44.45933" lon="1.40064">
        <ele>254.79271894358</ele>
        <time>2017-12-11T15:16:46Z</time>
      </trkpt>
      <trkpt lat="44.45925" lon="1.40061">
        <ele>255.05746645201</ele>
        <time>2017-12-11T15:16:55Z</time>
      </trkpt>
      <trkpt lat="44.45917" lon="1.40055">
        <ele>254.95152231087</ele>
        <time>2017-12-11T15:17:04Z</time>
      </trkpt>
      <trkpt lat="44.45909" lon="1.40052">
        <ele>254.86281517258</ele>
        <time>2017-12-11T15:17:14Z</time>
      </trkpt>
      <trkpt lat="44.45901" lon="1.40046">
        <ele>253.77975685228</ele>
        <time>2017-12-11T15:17:24Z</time>
      </trkpt>
      <trkpt lat="44.45895" lon="1.40037">
        <ele>253.37895024966</ele>
        <time>2017-12-11T15:17:30Z</time>
      </trkpt>
      <trkpt lat="44.45889" lon="1.40028">
        <ele>253.45710304646</ele>
        <time>2017-12-11T15:17:38Z</time>
      </trkpt>
      <trkpt lat="44.45881" lon="1.40025">
        <ele>252.64229943802</ele>
        <time>2017-12-11T15:17:48Z</time>
      </trkpt>
      <trkpt lat="44.45872" lon="1.40025">
        <ele>251.71952971795</ele>
        <time>2017-12-11T15:17:58Z</time>
      </trkpt>
      <trkpt lat="44.45864" lon="1.40022">
        <ele>250.78455735683</ele>
        <time>2017-12-11T15:18:07Z</time>
      </trkpt>
      <trkpt lat="44.45856" lon="1.40022">
        <ele>249.74606306952</ele>
        <time>2017-12-11T15:18:18Z</time>
      </trkpt>
      <trkpt lat="44.45848" lon="1.4002">
        <ele>248.81029633584</ele>
        <time>2017-12-11T15:18:27Z</time>
      </trkpt>
      <trkpt lat="44.4584" lon="1.40015">
        <ele>248.28843834911</ele>
        <time>2017-12-11T15:18:34Z</time>
      </trkpt>
      <trkpt lat="44.45832" lon="1.40013">
        <ele>247.562092542</ele>
        <time>2017-12-11T15:18:41Z</time>
      </trkpt>
      <trkpt lat="44.45823" lon="1.40011">
        <ele>247.22692389133</ele>
        <time>2017-12-11T15:18:48Z</time>
      </trkpt>
      <trkpt lat="44.45816" lon="1.40007">
        <ele>246.06524443305</ele>
        <time>2017-12-11T15:18:56Z</time>
      </trkpt>
      <trkpt lat="44.45809" lon="1.39999">
        <ele>245.48263260056</ele>
        <time>2017-12-11T15:19:04Z</time>
      </trkpt>
      <trkpt lat="44.45802" lon="1.39994">
        <ele>245.38025970312</ele>
        <time>2017-12-11T15:19:09Z</time>
      </trkpt>
      <trkpt lat="44.45794" lon="1.39989">
        <ele>245.60831716026</ele>
        <time>2017-12-11T15:19:15Z</time>
      </trkpt>
      <trkpt lat="44.45786" lon="1.39984">
        <ele>246.31769846852</ele>
        <time>2017-12-11T15:19:23Z</time>
      </trkpt>
      <trkpt lat="44.45779" lon="1.39976">
        <ele>246.90189237672</ele>
        <time>2017-12-11T15:19:33Z</time>
      </trkpt>
      <trkpt lat="44.45772" lon="1.39968">
        <ele>246.41379638294</ele>
        <time>2017-12-11T15:19:40Z</time>
      </trkpt>
      <trkpt lat="44.45767" lon="1.39961">
        <ele>245.91673007551</ele>
        <time>2017-12-11T15:19:45Z</time>
      </trkpt>
      <trkpt lat="44.4576" lon="1.39955">
        <ele>245.14766749431</ele>
        <time>2017-12-11T15:19:53Z</time>
      </trkpt>
      <trkpt lat="44.45752" lon="1.39952">
        <ele>244.49376276589</ele>
        <time>2017-12-11T15:20:02Z</time>
      </trkpt>
      <trkpt lat="44.45743" lon="1.39949">
        <ele>244.2730765998</ele>
        <time>2017-12-11T15:20:10Z</time>
      </trkpt>
      <trkpt lat="44.45735" lon="1.39945">
        <ele>244.94121940843</ele>
        <time>2017-12-11T15:20:20Z</time>
      </trkpt>
      <trkpt lat="44.45727" lon="1.39939">
        <ele>245.59924713865</ele>
        <time>2017-12-11T15:20:27Z</time>
      </trkpt>
      <trkpt lat="44.45719" lon="1.39934">
        <ele>246.08347947059</ele>
        <time>2017-12-11T15:20:33Z</time>
      </trkpt>
      <trkpt lat="44.45712" lon="1.39928">
        <ele>247.17463912141</ele>
        <time>2017-12-11T15:20:43Z</time>
      </trkpt>
      <trkpt lat="44.45705" lon="1.39921">
        <ele>247.2868011568</ele>
        <time>2017-12-11T15:20:48Z</time>
      </trkpt>
      <trkpt lat="44.45698" lon="1.39914">
        <ele>247.29753133406</ele>
        <time>2017-12-11T15:20:55Z</time>
      </trkpt>
      <trkpt lat="44.45691" lon="1.39909">
        <ele>247.50293069313</ele>
        <time>2017-12-11T15:21:00Z</time>
      </trkpt>
      <trkpt lat="44.45684" lon="1.39905">
        <ele>248.05201912114</ele>
        <time>2017-12-11T15:21:06Z</time>
      </trkpt>
      <trkpt lat="44.45676" lon="1.39903">
        <ele>249.0030183449</ele>
        <time>2017-12-11T15:21:15Z</time>
      </trkpt>
      <trkpt lat="44.45667" lon="1.399">
        <ele>249.6960108168</ele>
        <time>2017-12-11T15:21:27Z</time>
      </trkpt>
      <trkpt lat="44.45659" lon="1.39897">
        <ele>249.73945238082</ele>
        <time>2017-12-11T15:21:35Z</time>
      </trkpt>
      <trkpt lat="44.45651" lon="1.39894">
        <ele>249.40380536939</ele>
        <time>2017-12-11T15:21:40Z</time>
      </trkpt>
      <trkpt lat="44.45643" lon="1.3989">
        <ele>249.31283611713</ele>
        <time>2017-12-11T15:21:47Z</time>
      </trkpt>
      <trkpt lat="44.45635" lon="1.3989">
        <ele>249.4649177654</ele>
        <time>2017-12-11T15:21:53Z</time>
      </trkpt>
      <trkpt lat="44.45626" lon="1.3989">
        <ele>249.09605295112</ele>
        <time>2017-12-11T15:22:01Z</time>
      </trkpt>
      <trkpt lat="44.45619" lon="1.39886">
        <ele>248.90861954704</ele>
        <time>2017-12-11T15:22:08Z</time>
      </trkpt>
      <trkpt lat="44.45611" lon="1.39881">
        <ele>248.54911001106</ele>
        <time>2017-12-11T15:22:16Z</time>
      </trkpt>
      <trkpt lat="44.45602" lon="1.3988">
        <ele>247.47417700778</ele>
        <time>2017-12-11T15:22:25Z</time>
      </trkpt>
      <trkpt lat="44.45594" lon="1.39879">
        <ele>246.14921643258</ele>
        <time>2017-12-11T15:22:35Z</time>
      </trkpt>
      <trkpt lat="44.45586" lon="1.39879">
        <ele>245.71182305752</ele>
        <time>2017-12-11T15:22:40Z</time>
      </trkpt>
      <trkpt lat="44.45578" lon="1.39875">
        <ele>245.36779505592</ele>
        <time>2017-12-11T15:22:46Z</time>
      </trkpt>
      <trkpt lat="44.4557" lon="1.39871">
        <ele>244.39896372966</ele>
        <time>2017-12-11T15:22:52Z</time>
      </trkpt>
      <trkpt lat="44.45563" lon="1.39869">
        <ele>243.99992275954</ele>
        <time>2017-12-11T15:22:59Z</time>
      </trkpt>
      <trkpt lat="44.45555" lon="1.39865">
        <ele>244.10970878139</ele>
        <time>2017-12-11T15:23:06Z</time>
      </trkpt>
      <trkpt lat="44.45549" lon="1.39859">
        <ele>243.98584254037</ele>
        <time>2017-12-11T15:23:12Z</time>
      </trkpt>
      <trkpt lat="44.45542" lon="1.39853">
        <ele>244.15060368057</ele>
        <time>2017-12-11T15:23:17Z</time>
      </trkpt>
      <trkpt lat="44.45536" lon="1.39847">
        <ele>244.31213323166</ele>
        <time>2017-12-11T15:23:23Z</time>
      </trkpt>
      <trkpt lat="44.45528" lon="1.39841">
        <ele>243.72625129092</ele>
        <time>2017-12-11T15:23:30Z</time>
      </trkpt>
      <trkpt lat="44.4552" lon="1.39838">
        <ele>243.90370522182</ele>
        <time>2017-12-11T15:23:39Z</time>
      </trkpt>
      <trkpt lat="44.45511" lon="1.39837">
        <ele>244.29734895913</ele>
        <time>2017-12-11T15:23:47Z</time>
      </trkpt>
      <trkpt lat="44.45503" lon="1.3984">
        <ele>244.50632966999</ele>
        <time>2017-12-11T15:23:55Z</time>
      </trkpt>
      <trkpt lat="44.45494" lon="1.39837">
        <ele>245.04450752744</ele>
        <time>2017-12-11T15:24:02Z</time>
      </trkpt>
      <trkpt lat="44.45486" lon="1.39832">
        <ele>245.48721855375</ele>
        <time>2017-12-11T15:24:08Z</time>
      </trkpt>
      <trkpt lat="44.4548" lon="1.39824">
        <ele>246.26110165785</ele>
        <time>2017-12-11T15:24:18Z</time>
      </trkpt>
      <trkpt lat="44.45475" lon="1.39816">
        <ele>246.65754154978</ele>
        <time>2017-12-11T15:24:24Z</time>
      </trkpt>
      <trkpt lat="44.45471" lon="1.39806">
        <ele>248.11605177952</ele>
        <time>2017-12-11T15:24:34Z</time>
      </trkpt>
      <trkpt lat="44.45468" lon="1.39794">
        <ele>248.76986902416</ele>
        <time>2017-12-11T15:24:43Z</time>
      </trkpt>
      <trkpt lat="44.45464" lon="1.39783">
        <ele>249.35860334175</ele>
        <time>2017-12-11T15:24:51Z</time>
      </trkpt>
      <trkpt lat="44.45459" lon="1.39773">
        <ele>250.04699403139</ele>
        <time>2017-12-11T15:24:58Z</time>
      </trkpt>
      <trkpt lat="44.45455" lon="1.39764">
        <ele>250.60888422961</ele>
        <time>2017-12-11T15:25:05Z</time>
      </trkpt>
      <trkpt lat="44.45449" lon="1.39757">
        <ele>251.23405393059</ele>
        <time>2017-12-11T15:25:13Z</time>
      </trkpt>
      <trkpt lat="44.45443" lon="1.39748">
        <ele>252.00078686663</ele>
        <time>2017-12-11T15:25:22Z</time>
      </trkpt>
      <trkpt lat="44.45438" lon="1.39739">
        <ele>252.49580512024</ele>
        <time>2017-12-11T15:25:29Z</time>
      </trkpt>
      <trkpt lat="44.45433" lon="1.39732">
        <ele>252.76086534398</ele>
        <time>2017-12-11T15:25:34Z</time>
      </trkpt>
      <trkpt lat="44.45428" lon="1.39723">
        <ele>252.96471039163</ele>
        <time>2017-12-11T15:25:41Z</time>
      </trkpt>
      <trkpt lat="44.45422" lon="1.39714">
        <ele>253.39140841197</ele>
        <time>2017-12-11T15:25:49Z</time>
      </trkpt>
      <trkpt lat="44.45416" lon="1.39706">
        <ele>254.38886326119</ele>
        <time>2017-12-11T15:26:00Z</time>
      </trkpt>
      <trkpt lat="44.45408" lon="1.39703">
        <ele>255.25767911523</ele>
        <time>2017-12-11T15:26:10Z</time>
      </trkpt>
      <trkpt lat="44.45399" lon="1.39703">
        <ele>255.69989434478</ele>
        <time>2017-12-11T15:26:17Z</time>
      </trkpt>
      <trkpt lat="44.45391" lon="1.397">
        <ele>256.69253443574</ele>
        <time>2017-12-11T15:26:26Z</time>
      </trkpt>
      <trkpt lat="44.45383" lon="1.397">
        <ele>256.90404091064</ele>
        <time>2017-12-11T15:26:38Z</time>
      </trkpt>
      <trkpt lat="44.45374" lon="1.39697">
        <ele>256.84681599496</ele>
        <time>2017-12-11T15:26:46Z</time>
      </trkpt>
      <trkpt lat="44.45365" lon="1.39697">
        <ele>256.93928960108</ele>
        <time>2017-12-11T15:26:55Z</time>
      </trkpt>
      <trkpt lat="44.45357" lon="1.39698">
        <ele>257.10650520542</ele>
        <time>2017-12-11T15:27:02Z</time>
      </trkpt>
      <trkpt lat="44.45349" lon="1.39703">
        <ele>257.65766013932</ele>
        <time>2017-12-11T15:27:15Z</time>
      </trkpt>
      <trkpt lat="44.45343" lon="1.39712">
        <ele>257.83334884313</ele>
        <time>2017-12-11T15:27:25Z</time>
      </trkpt>
      <trkpt lat="44.45336" lon="1.39718">
        <ele>257.6678069691</ele>
        <time>2017-12-11T15:27:52Z</time>
      </trkpt>
      <trkpt lat="44.45332" lon="1.39729">
        <ele>257.63093223833</ele>
        <time>2017-12-11T15:27:57Z</time>
      </trkpt>
      <trkpt lat="44.45326" lon="1.39738">
        <ele>257.57354417482</ele>
        <time>2017-12-11T15:28:04Z</time>
      </trkpt>
      <trkpt lat="44.45322" lon="1.39748">
        <ele>257.07025363643</ele>
        <time>2017-12-11T15:28:10Z</time>
      </trkpt>
      <trkpt lat="44.45315" lon="1.39755">
        <ele>257.33746754166</ele>
        <time>2017-12-11T15:28:19Z</time>
      </trkpt>
      <trkpt lat="44.45307" lon="1.39761">
        <ele>257.36895617873</ele>
        <time>2017-12-11T15:28:27Z</time>
      </trkpt>
      <trkpt lat="44.453" lon="1.39768">
        <ele>257.30754999996</ele>
        <time>2017-12-11T15:28:36Z</time>
      </trkpt>
      <trkpt lat="44.45295" lon="1.39777">
        <ele>257.21410576265</ele>
        <time>2017-12-11T15:28:43Z</time>
      </trkpt>
      <trkpt lat="44.45291" lon="1.39789">
        <ele>257.12690046017</ele>
        <time>2017-12-11T15:28:48Z</time>
      </trkpt>
      <trkpt lat="44.45287" lon="1.39798">
        <ele>256.88109838872</ele>
        <time>2017-12-11T15:28:56Z</time>
      </trkpt>
      <trkpt lat="44.45279" lon="1.39804">
        <ele>257.16780016627</ele>
        <time>2017-12-11T15:29:04Z</time>
      </trkpt>
      <trkpt lat="44.45272" lon="1.39811">
        <ele>257.49637451443</ele>
        <time>2017-12-11T15:29:11Z</time>
      </trkpt>
      <trkpt lat="44.45265" lon="1.39819">
        <ele>257.76809730179</ele>
        <time>2017-12-11T15:29:18Z</time>
      </trkpt>
      <trkpt lat="44.4526" lon="1.39828">
        <ele>257.5375557533</ele>
        <time>2017-12-11T15:29:24Z</time>
      </trkpt>
      <trkpt lat="44.45255" lon="1.39838">
        <ele>256.92186969526</ele>
        <time>2017-12-11T15:29:32Z</time>
      </trkpt>
      <trkpt lat="44.45247" lon="1.39844">
        <ele>256.5785583871</ele>
        <time>2017-12-11T15:29:40Z</time>
      </trkpt>
      <trkpt lat="44.45239" lon="1.39849">
        <ele>257.13186925454</ele>
        <time>2017-12-11T15:29:48Z</time>
      </trkpt>
      <trkpt lat="44.45232" lon="1.39856">
        <ele>257.58070826284</ele>
        <time>2017-12-11T15:29:55Z</time>
      </trkpt>
      <trkpt lat="44.45226" lon="1.39863">
        <ele>257.75236839396</ele>
        <time>2017-12-11T15:30:01Z</time>
      </trkpt>
      <trkpt lat="44.4522" lon="1.39871">
        <ele>257.95127122942</ele>
        <time>2017-12-11T15:30:07Z</time>
      </trkpt>
      <trkpt lat="44.45215" lon="1.3988">
        <ele>258.2808164382</ele>
        <time>2017-12-11T15:30:13Z</time>
      </trkpt>
      <trkpt lat="44.4521" lon="1.39889">
        <ele>259.0007422018</ele>
        <time>2017-12-11T15:30:20Z</time>
      </trkpt>
      <trkpt lat="44.45205" lon="1.39896">
        <ele>259.36998322708</ele>
        <time>2017-12-11T15:30:24Z</time>
      </trkpt>
      <trkpt lat="44.45199" lon="1.39904">
        <ele>259.94615236462</ele>
        <time>2017-12-11T15:30:30Z</time>
      </trkpt>
      <trkpt lat="44.45192" lon="1.39911">
        <ele>260.51141602908</ele>
        <time>2017-12-11T15:30:39Z</time>
      </trkpt>
      <trkpt lat="44.45187" lon="1.39918">
        <ele>260.57957093351</ele>
        <time>2017-12-11T15:30:45Z</time>
      </trkpt>
      <trkpt lat="44.45181" lon="1.39927">
        <ele>260.34787646791</ele>
        <time>2017-12-11T15:30:51Z</time>
      </trkpt>
      <trkpt lat="44.45174" lon="1.39932">
        <ele>260.06616758756</ele>
        <time>2017-12-11T15:30:58Z</time>
      </trkpt>
      <trkpt lat="44.45167" lon="1.3994">
        <ele>259.67644587301</ele>
        <time>2017-12-11T15:31:03Z</time>
      </trkpt>
      <trkpt lat="44.45161" lon="1.39947">
        <ele>259.30101175607</ele>
        <time>2017-12-11T15:31:11Z</time>
      </trkpt>
      <trkpt lat="44.45154" lon="1.39955">
        <ele>259.36886421198</ele>
        <time>2017-12-11T15:31:18Z</time>
      </trkpt>
      <trkpt lat="44.45148" lon="1.39964">
        <ele>259.42053248229</ele>
        <time>2017-12-11T15:31:27Z</time>
      </trkpt>
      <trkpt lat="44.45142" lon="1.39972">
        <ele>259.36585235802</ele>
        <time>2017-12-11T15:31:33Z</time>
      </trkpt>
      <trkpt lat="44.45136" lon="1.3998">
        <ele>259.47121345662</ele>
        <time>2017-12-11T15:31:39Z</time>
      </trkpt>
      <trkpt lat="44.4513" lon="1.39988">
        <ele>259.80272114692</ele>
        <time>2017-12-11T15:31:45Z</time>
      </trkpt>
      <trkpt lat="44.45123" lon="1.39995">
        <ele>259.74553767053</ele>
        <time>2017-12-11T15:31:51Z</time>
      </trkpt>
      <trkpt lat="44.45116" lon="1.40002">
        <ele>258.7942993778</ele>
        <time>2017-12-11T15:32:00Z</time>
      </trkpt>
      <trkpt lat="44.45108" lon="1.40007">
        <ele>258.08819193345</ele>
        <time>2017-12-11T15:32:08Z</time>
      </trkpt>
      <trkpt lat="44.45101" lon="1.4001">
        <ele>257.95480651447</ele>
        <time>2017-12-11T15:32:14Z</time>
      </trkpt>
      <trkpt lat="44.45095" lon="1.40016">
        <ele>257.68033279985</ele>
        <time>2017-12-11T15:32:19Z</time>
      </trkpt>
      <trkpt lat="44.45088" lon="1.40022">
        <ele>257.19191448029</ele>
        <time>2017-12-11T15:32:25Z</time>
      </trkpt>
      <trkpt lat="44.4508" lon="1.40026">
        <ele>256.78748044411</ele>
        <time>2017-12-11T15:32:32Z</time>
      </trkpt>
      <trkpt lat="44.45073" lon="1.40031">
        <ele>256.30977843531</ele>
        <time>2017-12-11T15:32:38Z</time>
      </trkpt>
      <trkpt lat="44.45066" lon="1.40037">
        <ele>255.81502718123</ele>
        <time>2017-12-11T15:32:44Z</time>
      </trkpt>
      <trkpt lat="44.45057" lon="1.4004">
        <ele>255.8747800873</ele>
        <time>2017-12-11T15:32:50Z</time>
      </trkpt>
      <trkpt lat="44.45049" lon="1.40043">
        <ele>256.0751784902</ele>
        <time>2017-12-11T15:32:57Z</time>
      </trkpt>
      <trkpt lat="44.4504" lon="1.40044">
        <ele>256.19139829313</ele>
        <time>2017-12-11T15:33:03Z</time>
      </trkpt>
      <trkpt lat="44.45032" lon="1.40045">
        <ele>256.36502009774</ele>
        <time>2017-12-11T15:33:09Z</time>
      </trkpt>
      <trkpt lat="44.45024" lon="1.40047">
        <ele>255.7833454242</ele>
        <time>2017-12-11T15:33:16Z</time>
      </trkpt>
      <trkpt lat="44.45017" lon="1.40049">
        <ele>255.4804907262</ele>
        <time>2017-12-11T15:33:23Z</time>
      </trkpt>
      <trkpt lat="44.45009" lon="1.40051">
        <ele>255.73378552362</ele>
        <time>2017-12-11T15:33:28Z</time>
      </trkpt>
      <trkpt lat="44.45001" lon="1.40054">
        <ele>256.05426570054</ele>
        <time>2017-12-11T15:33:35Z</time>
      </trkpt>
      <trkpt lat="44.44993" lon="1.40056">
        <ele>256.45301415431</ele>
        <time>2017-12-11T15:33:46Z</time>
      </trkpt>
      <trkpt lat="44.44984" lon="1.40061">
        <ele>256.7884385812</ele>
        <time>2017-12-11T15:33:53Z</time>
      </trkpt>
      <trkpt lat="44.44977" lon="1.40064">
        <ele>256.87968381085</ele>
        <time>2017-12-11T15:33:59Z</time>
      </trkpt>
      <trkpt lat="44.44969" lon="1.40068">
        <ele>256.01384013275</ele>
        <time>2017-12-11T15:34:08Z</time>
      </trkpt>
      <trkpt lat="44.44962" lon="1.40073">
        <ele>255.04686981565</ele>
        <time>2017-12-11T15:34:12Z</time>
      </trkpt>
      <trkpt lat="44.44955" lon="1.40079">
        <ele>253.88581251633</ele>
        <time>2017-12-11T15:34:17Z</time>
      </trkpt>
      <trkpt lat="44.44947" lon="1.40084">
        <ele>252.63249820775</ele>
        <time>2017-12-11T15:34:22Z</time>
      </trkpt>
      <trkpt lat="44.44939" lon="1.40088">
        <ele>251.30875998348</ele>
        <time>2017-12-11T15:34:28Z</time>
      </trkpt>
      <trkpt lat="44.44931" lon="1.40092">
        <ele>250.39810412</ele>
        <time>2017-12-11T15:34:36Z</time>
      </trkpt>
      <trkpt lat="44.44924" lon="1.40096">
        <ele>250.13118904645</ele>
        <time>2017-12-11T15:34:41Z</time>
      </trkpt>
      <trkpt lat="44.44917" lon="1.40101">
        <ele>249.62476994761</ele>
        <time>2017-12-11T15:34:47Z</time>
      </trkpt>
      <trkpt lat="44.44909" lon="1.40104">
        <ele>249.4543889644</ele>
        <time>2017-12-11T15:34:53Z</time>
      </trkpt>
      <trkpt lat="44.44901" lon="1.40108">
        <ele>249.86822976726</ele>
        <time>2017-12-11T15:35:01Z</time>
      </trkpt>
      <trkpt lat="44.44894" lon="1.40116">
        <ele>251.54748220894</ele>
        <time>2017-12-11T15:35:16Z</time>
      </trkpt>
      <trkpt lat="44.44887" lon="1.40123">
        <ele>251.74915000553</ele>
        <time>2017-12-11T15:35:30Z</time>
      </trkpt>
      <trkpt lat="44.44879" lon="1.40119">
        <ele>251.81314409434</ele>
        <time>2017-12-11T15:35:38Z</time>
      </trkpt>
      <trkpt lat="44.44869" lon="1.40117">
        <ele>252.1553335945</ele>
        <time>2017-12-11T15:35:43Z</time>
      </trkpt>
      <trkpt lat="44.44861" lon="1.40117">
        <ele>252.41856924139</ele>
        <time>2017-12-11T15:35:51Z</time>
      </trkpt>
      <trkpt lat="44.44852" lon="1.40119">
        <ele>252.32949928751</ele>
        <time>2017-12-11T15:35:59Z</time>
      </trkpt>
      <trkpt lat="44.44845" lon="1.40123">
        <ele>252.47712517101</ele>
        <time>2017-12-11T15:36:05Z</time>
      </trkpt>
      <trkpt lat="44.44838" lon="1.40128">
        <ele>252.39360536953</ele>
        <time>2017-12-11T15:36:11Z</time>
      </trkpt>
      <trkpt lat="44.4483" lon="1.40131">
        <ele>252.38541604547</ele>
        <time>2017-12-11T15:36:16Z</time>
      </trkpt>
      <trkpt lat="44.44822" lon="1.40135">
        <ele>252.46108415255</ele>
        <time>2017-12-11T15:36:22Z</time>
      </trkpt>
      <trkpt lat="44.44814" lon="1.40138">
        <ele>252.24062287814</ele>
        <time>2017-12-11T15:36:30Z</time>
      </trkpt>
      <trkpt lat="44.44806" lon="1.40142">
        <ele>252.32875904001</ele>
        <time>2017-12-11T15:36:36Z</time>
      </trkpt>
      <trkpt lat="44.44797" lon="1.40145">
        <ele>252.14045234038</ele>
        <time>2017-12-11T15:36:45Z</time>
      </trkpt>
      <trkpt lat="44.4479" lon="1.40148">
        <ele>252.46854863596</ele>
        <time>2017-12-11T15:36:50Z</time>
      </trkpt>
      <trkpt lat="44.44783" lon="1.40153">
        <ele>252.72956890014</ele>
        <time>2017-12-11T15:36:56Z</time>
      </trkpt>
      <trkpt lat="44.44777" lon="1.40162">
        <ele>252.82183683057</ele>
        <time>2017-12-11T15:37:04Z</time>
      </trkpt>
      <trkpt lat="44.44772" lon="1.40171">
        <ele>252.89981749381</ele>
        <time>2017-12-11T15:37:13Z</time>
      </trkpt>
      <trkpt lat="44.44766" lon="1.4018">
        <ele>253.45678021941</ele>
        <time>2017-12-11T15:37:20Z</time>
      </trkpt>
      <trkpt lat="44.44761" lon="1.40189">
        <ele>253.71097598039</ele>
        <time>2017-12-11T15:37:27Z</time>
      </trkpt>
      <trkpt lat="44.44757" lon="1.40198">
        <ele>254.06518594505</ele>
        <time>2017-12-11T15:37:33Z</time>
      </trkpt>
      <trkpt lat="44.44751" lon="1.40207">
        <ele>254.40858122609</ele>
        <time>2017-12-11T15:37:43Z</time>
      </trkpt>
      <trkpt lat="44.44745" lon="1.40216">
        <ele>254.34610530444</ele>
        <time>2017-12-11T15:37:50Z</time>
      </trkpt>
      <trkpt lat="44.44739" lon="1.40224">
        <ele>254.20651227774</ele>
        <time>2017-12-11T15:37:57Z</time>
      </trkpt>
      <trkpt lat="44.44733" lon="1.40233">
        <ele>254.10575677427</ele>
        <time>2017-12-11T15:38:04Z</time>
      </trkpt>
      <trkpt lat="44.44728" lon="1.4024">
        <ele>254.87670633816</ele>
        <time>2017-12-11T15:38:10Z</time>
      </trkpt>
      <trkpt lat="44.44724" lon="1.40249">
        <ele>255.30795453489</ele>
        <time>2017-12-11T15:38:16Z</time>
      </trkpt>
      <trkpt lat="44.44719" lon="1.40257">
        <ele>255.62766100736</ele>
        <time>2017-12-11T15:38:22Z</time>
      </trkpt>
      <trkpt lat="44.44714" lon="1.40266">
        <ele>255.76986464023</ele>
        <time>2017-12-11T15:38:27Z</time>
      </trkpt>
      <trkpt lat="44.44708" lon="1.40274">
        <ele>256.1554221448</ele>
        <time>2017-12-11T15:38:34Z</time>
      </trkpt>
      <trkpt lat="44.44701" lon="1.40278">
        <ele>257.15517876364</ele>
        <time>2017-12-11T15:38:43Z</time>
      </trkpt>
      <trkpt lat="44.44695" lon="1.40286">
        <ele>257.2555053743</ele>
        <time>2017-12-11T15:38:48Z</time>
      </trkpt>
      <trkpt lat="44.44689" lon="1.40295">
        <ele>257.37136273</ele>
        <time>2017-12-11T15:38:55Z</time>
      </trkpt>
      <trkpt lat="44.44685" lon="1.40305">
        <ele>257.61802213545</ele>
        <time>2017-12-11T15:39:03Z</time>
      </trkpt>
      <trkpt lat="44.44679" lon="1.40314">
        <ele>258.13584557435</ele>
        <time>2017-12-11T15:39:10Z</time>
      </trkpt>
      <trkpt lat="44.44674" lon="1.40324">
        <ele>259.73491095335</ele>
        <time>2017-12-11T15:39:19Z</time>
      </trkpt>
      <trkpt lat="44.4467" lon="1.40335">
        <ele>261.31321282984</ele>
        <time>2017-12-11T15:39:26Z</time>
      </trkpt>
      <trkpt lat="44.44662" lon="1.40339">
        <ele>266.90098880324</ele>
        <time>2017-12-11T15:39:57Z</time>
      </trkpt>
      <trkpt lat="44.44655" lon="1.40345">
        <ele>266.85262326144</ele>
        <time>2017-12-11T15:40:27Z</time>
      </trkpt>
      <trkpt lat="44.44654" lon="1.40357">
        <ele>264.72922978307</ele>
        <time>2017-12-11T15:40:43Z</time>
      </trkpt>
      <trkpt lat="44.44652" lon="1.40368">
        <ele>264.718912221</ele>
        <time>2017-12-11T15:40:50Z</time>
      </trkpt>
      <trkpt lat="44.44651" lon="1.4038">
        <ele>265.21326799544</ele>
        <time>2017-12-11T15:40:58Z</time>
      </trkpt>
      <trkpt lat="44.44649" lon="1.40392">
        <ele>265.36264932046</ele>
        <time>2017-12-11T15:41:04Z</time>
      </trkpt>
      <trkpt lat="44.44649" lon="1.40402">
        <ele>265.41115860114</ele>
        <time>2017-12-11T15:41:10Z</time>
      </trkpt>
      <trkpt lat="44.44649" lon="1.40414">
        <ele>265.43263441441</ele>
        <time>2017-12-11T15:41:16Z</time>
      </trkpt>
      <trkpt lat="44.44648" lon="1.40425">
        <ele>265.52787853215</ele>
        <time>2017-12-11T15:41:24Z</time>
      </trkpt>
      <trkpt lat="44.44645" lon="1.40436">
        <ele>265.72257583284</ele>
        <time>2017-12-11T15:41:31Z</time>
      </trkpt>
      <trkpt lat="44.44642" lon="1.40446">
        <ele>265.59438320922</ele>
        <time>2017-12-11T15:41:38Z</time>
      </trkpt>
      <trkpt lat="44.44638" lon="1.40455">
        <ele>265.64467520418</ele>
        <time>2017-12-11T15:41:43Z</time>
      </trkpt>
      <trkpt lat="44.44634" lon="1.40465">
        <ele>265.770275536</ele>
        <time>2017-12-11T15:41:51Z</time>
      </trkpt>
      <trkpt lat="44.44635" lon="1.40477">
        <ele>265.73316529388</ele>
        <time>2017-12-11T15:42:01Z</time>
      </trkpt>
      <trkpt lat="44.44631" lon="1.40488">
        <ele>264.85056822115</ele>
        <time>2017-12-11T15:42:09Z</time>
      </trkpt>
      <trkpt lat="44.44629" lon="1.405">
        <ele>263.88601149868</ele>
        <time>2017-12-11T15:42:15Z</time>
      </trkpt>
      <trkpt lat="44.44626" lon="1.40512">
        <ele>263.47034827591</ele>
        <time>2017-12-11T15:42:23Z</time>
      </trkpt>
      <trkpt lat="44.44623" lon="1.40524">
        <ele>263.08178233591</ele>
        <time>2017-12-11T15:42:32Z</time>
      </trkpt>
      <trkpt lat="44.44621" lon="1.40535">
        <ele>263.88704756251</ele>
        <time>2017-12-11T15:42:39Z</time>
      </trkpt>
      <trkpt lat="44.44619" lon="1.40547">
        <ele>264.06930865386</ele>
        <time>2017-12-11T15:42:45Z</time>
      </trkpt>
      <trkpt lat="44.44615" lon="1.40558">
        <ele>263.94964879404</ele>
        <time>2017-12-11T15:42:52Z</time>
      </trkpt>
      <trkpt lat="44.44611" lon="1.40567">
        <ele>263.59179583512</ele>
        <time>2017-12-11T15:42:59Z</time>
      </trkpt>
      <trkpt lat="44.44607" lon="1.40578">
        <ele>263.69327905803</ele>
        <time>2017-12-11T15:43:07Z</time>
      </trkpt>
      <trkpt lat="44.44603" lon="1.40588">
        <ele>263.9923051879</ele>
        <time>2017-12-11T15:43:14Z</time>
      </trkpt>
      <trkpt lat="44.44599" lon="1.40599">
        <ele>264.57164063976</ele>
        <time>2017-12-11T15:43:20Z</time>
      </trkpt>
      <trkpt lat="44.44596" lon="1.40611">
        <ele>265.63520802411</ele>
        <time>2017-12-11T15:43:28Z</time>
      </trkpt>
      <trkpt lat="44.44594" lon="1.4062">
        <ele>266.42316781581</ele>
        <time>2017-12-11T15:43:34Z</time>
      </trkpt>
      <trkpt lat="44.4459" lon="1.40631">
        <ele>267.86305055847</ele>
        <time>2017-12-11T15:43:43Z</time>
      </trkpt>
      <trkpt lat="44.44585" lon="1.40641">
        <ele>268.64135374784</ele>
        <time>2017-12-11T15:43:49Z</time>
      </trkpt>
      <trkpt lat="44.44581" lon="1.4065">
        <ele>268.2088338856</ele>
        <time>2017-12-11T15:43:56Z</time>
      </trkpt>
      <trkpt lat="44.44577" lon="1.40661">
        <ele>267.82809606164</ele>
        <time>2017-12-11T15:44:06Z</time>
      </trkpt>
      <trkpt lat="44.44572" lon="1.4067">
        <ele>267.60069494846</ele>
        <time>2017-12-11T15:44:13Z</time>
      </trkpt>
      <trkpt lat="44.44568" lon="1.40679">
        <ele>267.98295565777</ele>
        <time>2017-12-11T15:44:19Z</time>
      </trkpt>
      <trkpt lat="44.44563" lon="1.4069">
        <ele>268.70579111377</ele>
        <time>2017-12-11T15:44:30Z</time>
      </trkpt>
      <trkpt lat="44.44558" lon="1.40699">
        <ele>269.33232201137</ele>
        <time>2017-12-11T15:44:38Z</time>
      </trkpt>
      <trkpt lat="44.44553" lon="1.40705">
        <ele>269.695008714</ele>
        <time>2017-12-11T15:44:44Z</time>
      </trkpt>
      <trkpt lat="44.44546" lon="1.40714">
        <ele>269.75530387273</ele>
        <time>2017-12-11T15:44:49Z</time>
      </trkpt>
      <trkpt lat="44.4454" lon="1.40719">
        <ele>269.757417749</ele>
        <time>2017-12-11T15:44:54Z</time>
      </trkpt>
      <trkpt lat="44.44533" lon="1.40727">
        <ele>269.56669732424</ele>
        <time>2017-12-11T15:45:00Z</time>
      </trkpt>
      <trkpt lat="44.44527" lon="1.40736">
        <ele>269.57174339363</ele>
        <time>2017-12-11T15:45:08Z</time>
      </trkpt>
      <trkpt lat="44.44521" lon="1.40743">
        <ele>269.31955760018</ele>
        <time>2017-12-11T15:45:15Z</time>
      </trkpt>
      <trkpt lat="44.44515" lon="1.40749">
        <ele>269.58149179659</ele>
        <time>2017-12-11T15:45:21Z</time>
      </trkpt>
      <trkpt lat="44.44508" lon="1.40756">
        <ele>270.26032596932</ele>
        <time>2017-12-11T15:45:29Z</time>
      </trkpt>
      <trkpt lat="44.44502" lon="1.40764">
        <ele>270.35368107609</ele>
        <time>2017-12-11T15:45:40Z</time>
      </trkpt>
      <trkpt lat="44.44499" lon="1.40782">
        <ele>270.22340628157</ele>
        <time>2017-12-11T15:45:45Z</time>
      </trkpt>
      <trkpt lat="44.44494" lon="1.40792">
        <ele>270.41201659251</ele>
        <time>2017-12-11T15:45:57Z</time>
      </trkpt>
      <trkpt lat="44.44488" lon="1.40801">
        <ele>268.97448819268</ele>
        <time>2017-12-11T15:46:06Z</time>
      </trkpt>
      <trkpt lat="44.44482" lon="1.40808">
        <ele>268.46934110523</ele>
        <time>2017-12-11T15:46:12Z</time>
      </trkpt>
      <trkpt lat="44.4448" lon="1.40819">
        <ele>269.46562300354</ele>
        <time>2017-12-11T15:46:24Z</time>
      </trkpt>
      <trkpt lat="44.44478" lon="1.40829">
        <ele>269.97168206367</ele>
        <time>2017-12-11T15:46:29Z</time>
      </trkpt>
      <trkpt lat="44.44475" lon="1.40841">
        <ele>271.0336887845</ele>
        <time>2017-12-11T15:46:35Z</time>
      </trkpt>
      <trkpt lat="44.44473" lon="1.40853">
        <ele>271.74549291482</ele>
        <time>2017-12-11T15:46:40Z</time>
      </trkpt>
      <trkpt lat="44.44471" lon="1.40865">
        <ele>272.84282926396</ele>
        <time>2017-12-11T15:46:47Z</time>
      </trkpt>
      <trkpt lat="44.4447" lon="1.40875">
        <ele>273.73955981398</ele>
        <time>2017-12-11T15:46:53Z</time>
      </trkpt>
      <trkpt lat="44.44468" lon="1.40887">
        <ele>274.27116230664</ele>
        <time>2017-12-11T15:47:00Z</time>
      </trkpt>
      <trkpt lat="44.44466" lon="1.40898">
        <ele>274.51069411544</ele>
        <time>2017-12-11T15:47:07Z</time>
      </trkpt>
      <trkpt lat="44.44464" lon="1.4091">
        <ele>274.97760054837</ele>
        <time>2017-12-11T15:47:14Z</time>
      </trkpt>
      <trkpt lat="44.44463" lon="1.40919">
        <ele>275.56169280555</ele>
        <time>2017-12-11T15:47:20Z</time>
      </trkpt>
      <trkpt lat="44.44464" lon="1.4093">
        <ele>276.18817406117</ele>
        <time>2017-12-11T15:47:26Z</time>
      </trkpt>
      <trkpt lat="44.44465" lon="1.40943">
        <ele>276.72508277956</ele>
        <time>2017-12-11T15:47:33Z</time>
      </trkpt>
      <trkpt lat="44.44459" lon="1.40951">
        <ele>277.75899691854</ele>
        <time>2017-12-11T15:47:41Z</time>
      </trkpt>
      <trkpt lat="44.44457" lon="1.40963">
        <ele>277.81608062848</ele>
        <time>2017-12-11T15:47:46Z</time>
      </trkpt>
      <trkpt lat="44.44456" lon="1.40975">
        <ele>277.07104859847</ele>
        <time>2017-12-11T15:47:52Z</time>
      </trkpt>
      <trkpt lat="44.44459" lon="1.40985">
        <ele>276.65434658419</ele>
        <time>2017-12-11T15:47:57Z</time>
      </trkpt>
      <trkpt lat="44.44461" lon="1.40996">
        <ele>276.3853361877</ele>
        <time>2017-12-11T15:48:03Z</time>
      </trkpt>
      <trkpt lat="44.44463" lon="1.41008">
        <ele>276.05649038606</ele>
        <time>2017-12-11T15:48:11Z</time>
      </trkpt>
      <trkpt lat="44.44462" lon="1.4102">
        <ele>276.2934446837</ele>
        <time>2017-12-11T15:48:18Z</time>
      </trkpt>
      <trkpt lat="44.44461" lon="1.41032">
        <ele>276.23886728845</ele>
        <time>2017-12-11T15:48:27Z</time>
      </trkpt>
      <trkpt lat="44.4446" lon="1.41042">
        <ele>276.70219894277</ele>
        <time>2017-12-11T15:48:34Z</time>
      </trkpt>
      <trkpt lat="44.44458" lon="1.41054">
        <ele>276.8991268335</ele>
        <time>2017-12-11T15:48:39Z</time>
      </trkpt>
      <trkpt lat="44.44458" lon="1.41066">
        <ele>277.7259450829</ele>
        <time>2017-12-11T15:48:46Z</time>
      </trkpt>
      <trkpt lat="44.44457" lon="1.41077">
        <ele>278.00594908112</ele>
        <time>2017-12-11T15:48:53Z</time>
      </trkpt>
      <trkpt lat="44.44457" lon="1.41087">
        <ele>277.9333197174</ele>
        <time>2017-12-11T15:48:59Z</time>
      </trkpt>
      <trkpt lat="44.44458" lon="1.41099">
        <ele>278.10312109442</ele>
        <time>2017-12-11T15:49:04Z</time>
      </trkpt>
      <trkpt lat="44.44458" lon="1.41111">
        <ele>278.36517276988</ele>
        <time>2017-12-11T15:49:10Z</time>
      </trkpt>
      <trkpt lat="44.44458" lon="1.41121">
        <ele>278.11642843263</ele>
        <time>2017-12-11T15:49:16Z</time>
      </trkpt>
      <trkpt lat="44.44459" lon="1.41132">
        <ele>277.74655524049</ele>
        <time>2017-12-11T15:49:21Z</time>
      </trkpt>
      <trkpt lat="44.44461" lon="1.41143">
        <ele>277.98744997908</ele>
        <time>2017-12-11T15:49:30Z</time>
      </trkpt>
      <trkpt lat="44.44458" lon="1.41156">
        <ele>278.39429555084</ele>
        <time>2017-12-11T15:49:35Z</time>
      </trkpt>
      <trkpt lat="44.44457" lon="1.41167">
        <ele>278.41251169192</ele>
        <time>2017-12-11T15:49:41Z</time>
      </trkpt>
      <trkpt lat="44.44457" lon="1.41179">
        <ele>278.334479416</ele>
        <time>2017-12-11T15:49:48Z</time>
      </trkpt>
      <trkpt lat="44.44458" lon="1.41191">
        <ele>278.40243346698</ele>
        <time>2017-12-11T15:49:54Z</time>
      </trkpt>
      <trkpt lat="44.4446" lon="1.41202">
        <ele>278.61234578178</ele>
        <time>2017-12-11T15:50:01Z</time>
      </trkpt>
      <trkpt lat="44.44459" lon="1.41214">
        <ele>278.04388654212</ele>
        <time>2017-12-11T15:50:07Z</time>
      </trkpt>
      <trkpt lat="44.4446" lon="1.41225">
        <ele>277.52822759582</ele>
        <time>2017-12-11T15:50:12Z</time>
      </trkpt>
      <trkpt lat="44.44459" lon="1.41237">
        <ele>277.14060053761</ele>
        <time>2017-12-11T15:50:18Z</time>
      </trkpt>
      <trkpt lat="44.44458" lon="1.41249">
        <ele>276.67656166434</ele>
        <time>2017-12-11T15:50:26Z</time>
      </trkpt>
      <trkpt lat="44.44459" lon="1.4126">
        <ele>276.63530762889</ele>
        <time>2017-12-11T15:50:32Z</time>
      </trkpt>
      <trkpt lat="44.44458" lon="1.41273">
        <ele>276.60524571481</ele>
        <time>2017-12-11T15:50:39Z</time>
      </trkpt>
      <trkpt lat="44.44457" lon="1.41284">
        <ele>276.57284601984</ele>
        <time>2017-12-11T15:50:46Z</time>
      </trkpt>
      <trkpt lat="44.44454" lon="1.41295">
        <ele>276.74005146514</ele>
        <time>2017-12-11T15:50:53Z</time>
      </trkpt>
      <trkpt lat="44.44447" lon="1.41303">
        <ele>277.23399870733</ele>
        <time>2017-12-11T15:51:03Z</time>
      </trkpt>
      <trkpt lat="44.44439" lon="1.41303">
        <ele>278.2397145978</ele>
        <time>2017-12-11T15:51:12Z</time>
      </trkpt>
      <trkpt lat="44.4443" lon="1.41306">
        <ele>279.09919526536</ele>
        <time>2017-12-11T15:51:18Z</time>
      </trkpt>
      <trkpt lat="44.44422" lon="1.41308">
        <ele>280.09919106206</ele>
        <time>2017-12-11T15:51:26Z</time>
      </trkpt>
      <trkpt lat="44.44413" lon="1.41308">
        <ele>281.06216308851</ele>
        <time>2017-12-11T15:51:33Z</time>
      </trkpt>
      <trkpt lat="44.44404" lon="1.41309">
        <ele>282.35467412114</ele>
        <time>2017-12-11T15:51:40Z</time>
      </trkpt>
      <trkpt lat="44.44396" lon="1.4131">
        <ele>283.50692854138</ele>
        <time>2017-12-11T15:51:47Z</time>
      </trkpt>
      <trkpt lat="44.44388" lon="1.41312">
        <ele>284.65680826195</ele>
        <time>2017-12-11T15:51:54Z</time>
      </trkpt>
      <trkpt lat="44.4438" lon="1.41312">
        <ele>285.92263901391</ele>
        <time>2017-12-11T15:52:00Z</time>
      </trkpt>
      <trkpt lat="44.44373" lon="1.41309">
        <ele>286.8681228973</ele>
        <time>2017-12-11T15:52:07Z</time>
      </trkpt>
      <trkpt lat="44.44365" lon="1.41305">
        <ele>287.84069739435</ele>
        <time>2017-12-11T15:52:14Z</time>
      </trkpt>
      <trkpt lat="44.44357" lon="1.41302">
        <ele>289.54174844427</ele>
        <time>2017-12-11T15:52:20Z</time>
      </trkpt>
      <trkpt lat="44.44349" lon="1.41298">
        <ele>291.00077534446</ele>
        <time>2017-12-11T15:52:27Z</time>
      </trkpt>
      <trkpt lat="44.44341" lon="1.41295">
        <ele>291.42206258039</ele>
        <time>2017-12-11T15:52:33Z</time>
      </trkpt>
      <trkpt lat="44.44334" lon="1.41291">
        <ele>291.40843552419</ele>
        <time>2017-12-11T15:52:38Z</time>
      </trkpt>
      <trkpt lat="44.44326" lon="1.41285">
        <ele>291.29980613076</ele>
        <time>2017-12-11T15:52:43Z</time>
      </trkpt>
      <trkpt lat="44.4432" lon="1.41276">
        <ele>290.60391162211</ele>
        <time>2017-12-11T15:52:53Z</time>
      </trkpt>
      <trkpt lat="44.44312" lon="1.41273">
        <ele>291.38450929849</ele>
        <time>2017-12-11T15:53:16Z</time>
      </trkpt>
      <trkpt lat="44.44306" lon="1.41266">
        <ele>291.03135600036</ele>
        <time>2017-12-11T15:53:22Z</time>
      </trkpt>
      <trkpt lat="44.44298" lon="1.4126">
        <ele>291.23549271061</ele>
        <time>2017-12-11T15:53:28Z</time>
      </trkpt>
      <trkpt lat="44.44291" lon="1.41253">
        <ele>291.68876339727</ele>
        <time>2017-12-11T15:53:37Z</time>
      </trkpt>
      <trkpt lat="44.44284" lon="1.41249">
        <ele>291.07528528938</ele>
        <time>2017-12-11T15:53:42Z</time>
      </trkpt>
      <trkpt lat="44.44277" lon="1.41242">
        <ele>290.18276273544</ele>
        <time>2017-12-11T15:53:48Z</time>
      </trkpt>
      <trkpt lat="44.44272" lon="1.41233">
        <ele>289.91236030404</ele>
        <time>2017-12-11T15:53:53Z</time>
      </trkpt>
      <trkpt lat="44.44278" lon="1.41223">
        <ele>286.29167507701</ele>
        <time>2017-12-11T15:54:46Z</time>
      </trkpt>
      <trkpt lat="44.44279" lon="1.41221">
        <ele>286.1788807693</ele>
        <time>2017-12-11T15:57:48Z</time>
      </trkpt>
      <trkpt lat="44.44279" lon="1.41221">
        <ele>286.1788807693</ele>
        <time>2017-12-11T15:57:48Z</time>
      </trkpt>
    </trkseg>
  </trk>
</gpx>